<?xml version='1.0' encoding='UTF-8'?><gpx version="1.1" creator="JPX - https://github.com/jenetics/jpx" xmlns="http://www.topografix.com/GPX/1/1"><trk><trkseg><trkpt lat="45.6359183" lon="12.24655"><ele>11.0</ele><time>2026-04-12T08:52:12.569Z</time></trkpt><trkpt lat="45.635825" lon="12.2466583"><ele>11.0</ele><time>2026-04-12T08:52:19.569Z</time></trkpt><trkpt lat="45.6357583" lon="12.246855"><ele>11.0</ele><time>2026-04-12T08:52:25.547Z</time></trkpt><trkpt lat="45.6357767" lon="12.2469883"><ele>11.0</ele><time>2026-04-12T08:52:28.547Z</time></trkpt><trkpt lat="45.6357833" lon="12.247085"><ele>11.0</ele><time>2026-04-12T08:52:30.548Z</time></trkpt><trkpt lat="45.63578" lon="12.2472167"><ele>11.0</ele><time>2026-04-12T08:52:33.548Z</time></trkpt><trkpt lat="45.6357733" lon="12.2473517"><ele>11.0</ele><time>2026-04-12T08:52:36.547Z</time></trkpt><trkpt lat="45.6357717" lon="12.2474767"><ele>11.0</ele><time>2026-04-12T08:52:39.548Z</time></trkpt><trkpt lat="45.6357633" lon="12.2476017"><ele>11.0</ele><time>2026-04-12T08:52:42.548Z</time></trkpt><trkpt lat="45.6357317" lon="12.2478517"><ele>11.0</ele><time>2026-04-12T08:52:48.547Z</time></trkpt><trkpt lat="45.63573" lon="12.2479417"><ele>11.0</ele><time>2026-04-12T08:52:50.547Z</time></trkpt><trkpt lat="45.6357317" lon="12.2480767"><ele>11.0</ele><time>2026-04-12T08:52:53.547Z</time></trkpt><trkpt lat="45.6357283" lon="12.2481733"><ele>11.0</ele><time>2026-04-12T08:52:55.548Z</time></trkpt><trkpt lat="45.6357133" lon="12.248265"><ele>11.0</ele><time>2026-04-12T08:52:57.548Z</time></trkpt><trkpt lat="45.6356883" lon="12.2483833"><ele>11.0</ele><time>2026-04-12T08:53:00.548Z</time></trkpt><trkpt lat="45.6356683" lon="12.248505"><ele>11.0</ele><time>2026-04-12T08:53:03.548Z</time></trkpt><trkpt lat="45.6356533" lon="12.248755"><ele>11.166666666666666</ele><time>2026-04-12T08:53:09.548Z</time></trkpt><trkpt lat="45.6356333" lon="12.2488683"><ele>11.333333333333332</ele><time>2026-04-12T08:53:12.548Z</time></trkpt><trkpt lat="45.63563" lon="12.2489633"><ele>11.5</ele><time>2026-04-12T08:53:15.547Z</time></trkpt><trkpt lat="45.6356367" lon="12.2490667"><ele>11.666666666666666</ele><time>2026-04-12T08:53:18.547Z</time></trkpt><trkpt lat="45.635635" lon="12.249185"><ele>11.833333333333334</ele><time>2026-04-12T08:53:21.548Z</time></trkpt><trkpt lat="45.63561" lon="12.2493083"><ele>12.0</ele><time>2026-04-12T08:53:24.547Z</time></trkpt><trkpt lat="45.6354667" lon="12.2494167"><ele>12.0</ele><time>2026-04-12T08:53:30.547Z</time></trkpt><trkpt lat="45.635395" lon="12.2495"><ele>12.0</ele><time>2026-04-12T08:53:33.548Z</time></trkpt><trkpt lat="45.6353633" lon="12.2495917"><ele>12.0</ele><time>2026-04-12T08:53:36.547Z</time></trkpt><trkpt lat="45.6353417" lon="12.2496833"><ele>12.0</ele><time>2026-04-12T08:53:39.548Z</time></trkpt><trkpt lat="45.6352617" lon="12.2496583"><ele>12.0</ele><time>2026-04-12T08:53:43.548Z</time></trkpt><trkpt lat="45.6351833" lon="12.2496317"><ele>12.0</ele><time>2026-04-12T08:53:46.548Z</time></trkpt><trkpt lat="45.6350383" lon="12.2495833"><ele>11.833333333333334</ele><time>2026-04-12T08:53:51.548Z</time></trkpt><trkpt lat="45.634975" lon="12.2495667"><ele>11.666666666666666</ele><time>2026-04-12T08:53:53.548Z</time></trkpt><trkpt lat="45.6348917" lon="12.24954"><ele>11.5</ele><time>2026-04-12T08:53:56.547Z</time></trkpt><trkpt lat="45.6348117" lon="12.2495183"><ele>11.333333333333332</ele><time>2026-04-12T08:53:59.548Z</time></trkpt><trkpt lat="45.6347233" lon="12.2494933"><ele>11.166666666666666</ele><time>2026-04-12T08:54:02.547Z</time></trkpt><trkpt lat="45.6346417" lon="12.2494533"><ele>11.0</ele><time>2026-04-12T08:54:05.547Z</time></trkpt><trkpt lat="45.6345767" lon="12.2494317"><ele>10.600000000000001</ele><time>2026-04-12T08:54:07.547Z</time></trkpt><trkpt lat="45.6344417" lon="12.249395"><ele>10.200000000000001</ele><time>2026-04-12T08:54:11.547Z</time></trkpt><trkpt lat="45.6343533" lon="12.2493667"><ele>9.8</ele><time>2026-04-12T08:54:13.548Z</time></trkpt><trkpt lat="45.6342717" lon="12.249345"><ele>9.4</ele><time>2026-04-12T08:54:15.547Z</time></trkpt><trkpt lat="45.6341983" lon="12.2493283"><ele>9.0</ele><time>2026-04-12T08:54:17.548Z</time></trkpt><trkpt lat="45.6341183" lon="12.2493167"><ele>9.0</ele><time>2026-04-12T08:54:19.548Z</time></trkpt><trkpt lat="45.634045" lon="12.2493033"><ele>9.0</ele><time>2026-04-12T08:54:21.548Z</time></trkpt><trkpt lat="45.6339767" lon="12.2492983"><ele>9.0</ele><time>2026-04-12T08:54:23.548Z</time></trkpt><trkpt lat="45.633905" lon="12.2492933"><ele>9.0</ele><time>2026-04-12T08:54:25.548Z</time></trkpt><trkpt lat="45.6338367" lon="12.24928"><ele>9.0</ele><time>2026-04-12T08:54:27.548Z</time></trkpt><trkpt lat="45.6337433" lon="12.2492917"><ele>9.0</ele><time>2026-04-12T08:54:30.548Z</time></trkpt><trkpt lat="45.6336167" lon="12.2492767"><ele>8.666666666666666</ele><time>2026-04-12T08:54:34.548Z</time></trkpt><trkpt lat="45.6335283" lon="12.2492733"><ele>8.333333333333334</ele><time>2026-04-12T08:54:37.548Z</time></trkpt><trkpt lat="45.633445" lon="12.2492833"><ele>8.0</ele><time>2026-04-12T08:54:40.548Z</time></trkpt><trkpt lat="45.6333583" lon="12.2493067"><ele>7.666666666666667</ele><time>2026-04-12T08:54:43.548Z</time></trkpt><trkpt lat="45.6332783" lon="12.2493433"><ele>7.333333333333334</ele><time>2026-04-12T08:54:46.548Z</time></trkpt><trkpt lat="45.6331967" lon="12.2494017"><ele>7.0</ele><time>2026-04-12T08:54:49.548Z</time></trkpt><trkpt lat="45.6331333" lon="12.2494383"><ele>7.000000000000001</ele><time>2026-04-12T08:54:51.547Z</time></trkpt><trkpt lat="45.6330167" lon="12.249555"><ele>7.0</ele><time>2026-04-12T08:54:55.548Z</time></trkpt><trkpt lat="45.6329633" lon="12.249615"><ele>7.0</ele><time>2026-04-12T08:54:57.547Z</time></trkpt><trkpt lat="45.632885" lon="12.24969"><ele>7.0</ele><time>2026-04-12T08:55:00.547Z</time></trkpt><trkpt lat="45.632825" lon="12.2497333"><ele>7.000000000000001</ele><time>2026-04-12T08:55:02.548Z</time></trkpt><trkpt lat="45.6327633" lon="12.249775"><ele>7.0</ele><time>2026-04-12T08:55:04.548Z</time></trkpt><trkpt lat="45.6326817" lon="12.2498467"><ele>7.166666666666667</ele><time>2026-04-12T08:55:07.547Z</time></trkpt><trkpt lat="45.6326083" lon="12.249915"><ele>7.333333333333334</ele><time>2026-04-12T08:55:10.548Z</time></trkpt><trkpt lat="45.6325517" lon="12.249965"><ele>7.5</ele><time>2026-04-12T08:55:12.547Z</time></trkpt><trkpt lat="45.6324283" lon="12.2500517"><ele>7.666666666666666</ele><time>2026-04-12T08:55:16.548Z</time></trkpt><trkpt lat="45.6323667" lon="12.2500883"><ele>7.833333333333333</ele><time>2026-04-12T08:55:18.548Z</time></trkpt><trkpt lat="45.6323017" lon="12.25011"><ele>8.0</ele><time>2026-04-12T08:55:20.548Z</time></trkpt><trkpt lat="45.6322183" lon="12.2501667"><ele>8.0</ele><time>2026-04-12T08:55:23.547Z</time></trkpt><trkpt lat="45.6321383" lon="12.2502317"><ele>8.0</ele><time>2026-04-12T08:55:26.548Z</time></trkpt><trkpt lat="45.6320617" lon="12.2503017"><ele>8.0</ele><time>2026-04-12T08:55:29.548Z</time></trkpt><trkpt lat="45.6320067" lon="12.2503517"><ele>8.0</ele><time>2026-04-12T08:55:31.548Z</time></trkpt><trkpt lat="45.63193" lon="12.2504183"><ele>8.0</ele><time>2026-04-12T08:55:34.548Z</time></trkpt><trkpt lat="45.6317683" lon="12.25053"><ele>7.999999999999999</ele><time>2026-04-12T08:55:40.548Z</time></trkpt><trkpt lat="45.6316967" lon="12.2506133"><ele>8.0</ele><time>2026-04-12T08:55:43.548Z</time></trkpt><trkpt lat="45.6316583" lon="12.2507067"><ele>8.0</ele><time>2026-04-12T08:55:46.548Z</time></trkpt><trkpt lat="45.6316317" lon="12.2508217"><ele>8.0</ele><time>2026-04-12T08:55:49.547Z</time></trkpt><trkpt lat="45.63162" lon="12.2509383"><ele>7.999999999999999</ele><time>2026-04-12T08:55:52.547Z</time></trkpt><trkpt lat="45.631645" lon="12.251055"><ele>8.0</ele><time>2026-04-12T08:55:55.548Z</time></trkpt><trkpt lat="45.63171" lon="12.2512683"><ele>7.999999999999999</ele><time>2026-04-12T08:56:01.548Z</time></trkpt><trkpt lat="45.6317367" lon="12.2513833"><ele>8.0</ele><time>2026-04-12T08:56:04.548Z</time></trkpt><trkpt lat="45.6317683" lon="12.251505"><ele>8.0</ele><time>2026-04-12T08:56:07.548Z</time></trkpt><trkpt lat="45.6317967" lon="12.251625"><ele>8.0</ele><time>2026-04-12T08:56:10.548Z</time></trkpt><trkpt lat="45.631825" lon="12.251745"><ele>7.999999999999999</ele><time>2026-04-12T08:56:13.547Z</time></trkpt><trkpt lat="45.63185" lon="12.2518583"><ele>8.0</ele><time>2026-04-12T08:56:16.547Z</time></trkpt><trkpt lat="45.6319" lon="12.2520983"><ele>7.999999999999999</ele><time>2026-04-12T08:56:22.548Z</time></trkpt><trkpt lat="45.6319283" lon="12.2522167"><ele>8.0</ele><time>2026-04-12T08:56:25.548Z</time></trkpt><trkpt lat="45.6319467" lon="12.2523333"><ele>8.0</ele><time>2026-04-12T08:56:28.548Z</time></trkpt><trkpt lat="45.6319567" lon="12.25246"><ele>8.0</ele><time>2026-04-12T08:56:31.547Z</time></trkpt><trkpt lat="45.631955" lon="12.2525883"><ele>7.999999999999999</ele><time>2026-04-12T08:56:34.547Z</time></trkpt><trkpt lat="45.6319517" lon="12.2526783"><ele>8.0</ele><time>2026-04-12T08:56:36.547Z</time></trkpt><trkpt lat="45.6319483" lon="12.25277"><ele>8.0</ele><time>2026-04-12T08:56:38.548Z</time></trkpt><trkpt lat="45.6319283" lon="12.2529917"><ele>8.0</ele><time>2026-04-12T08:56:43.548Z</time></trkpt><trkpt lat="45.63191" lon="12.2531183"><ele>8.0</ele><time>2026-04-12T08:56:46.548Z</time></trkpt><trkpt lat="45.6319017" lon="12.25324"><ele>8.0</ele><time>2026-04-12T08:56:49.548Z</time></trkpt><trkpt lat="45.6319267" lon="12.2533633"><ele>8.0</ele><time>2026-04-12T08:56:52.548Z</time></trkpt><trkpt lat="45.6319567" lon="12.2534667"><ele>7.6000000000000005</ele><time>2026-04-12T08:56:55.547Z</time></trkpt><trkpt lat="45.6319517" lon="12.2535917"><ele>7.200000000000001</ele><time>2026-04-12T08:56:58.548Z</time></trkpt><trkpt lat="45.6319467" lon="12.2537167"><ele>6.8</ele><time>2026-04-12T08:57:01.547Z</time></trkpt><trkpt lat="45.6319333" lon="12.253935"><ele>6.4</ele><time>2026-04-12T08:57:06.547Z</time></trkpt><trkpt lat="45.6319283" lon="12.25403"><ele>6.0</ele><time>2026-04-12T08:57:08.548Z</time></trkpt><trkpt lat="45.6319233" lon="12.2541217"><ele>5.999999999999999</ele><time>2026-04-12T08:57:10.547Z</time></trkpt><trkpt lat="45.63192" lon="12.2542117"><ele>6.0</ele><time>2026-04-12T08:57:12.548Z</time></trkpt><trkpt lat="45.6319133" lon="12.254305"><ele>6.0</ele><time>2026-04-12T08:57:14.547Z</time></trkpt><trkpt lat="45.6319067" lon="12.2543983"><ele>6.0</ele><time>2026-04-12T08:57:16.547Z</time></trkpt><trkpt lat="45.6319017" lon="12.2544933"><ele>6.0</ele><time>2026-04-12T08:57:18.548Z</time></trkpt><trkpt lat="45.6318983" lon="12.25459"><ele>5.999999999999999</ele><time>2026-04-12T08:57:20.548Z</time></trkpt><trkpt lat="45.6319" lon="12.25468"><ele>6.0</ele><time>2026-04-12T08:57:22.548Z</time></trkpt><trkpt lat="45.6319017" lon="12.254865"><ele>6.166666666666667</ele><time>2026-04-12T08:57:26.548Z</time></trkpt><trkpt lat="45.6318917" lon="12.2549917"><ele>6.333333333333334</ele><time>2026-04-12T08:57:29.547Z</time></trkpt><trkpt lat="45.6318883" lon="12.2551183"><ele>6.5</ele><time>2026-04-12T08:57:32.547Z</time></trkpt><trkpt lat="45.6318783" lon="12.25525"><ele>6.666666666666667</ele><time>2026-04-12T08:57:35.548Z</time></trkpt><trkpt lat="45.6318717" lon="12.25534"><ele>6.833333333333334</ele><time>2026-04-12T08:57:37.548Z</time></trkpt><trkpt lat="45.6318683" lon="12.2554317"><ele>7.0</ele><time>2026-04-12T08:57:39.548Z</time></trkpt><trkpt lat="45.63186" lon="12.2555567"><ele>7.3999999999999995</ele><time>2026-04-12T08:57:42.547Z</time></trkpt><trkpt lat="45.6318033" lon="12.2556717"><ele>7.799999999999999</ele><time>2026-04-12T08:57:45.548Z</time></trkpt><trkpt lat="45.6317483" lon="12.255845"><ele>8.2</ele><time>2026-04-12T08:57:49.547Z</time></trkpt><trkpt lat="45.6317483" lon="12.25595"><ele>8.6</ele><time>2026-04-12T08:57:51.548Z</time></trkpt><trkpt lat="45.63176" lon="12.2560417"><ele>9.0</ele><time>2026-04-12T08:57:53.547Z</time></trkpt><trkpt lat="45.6317817" lon="12.2561583"><ele>9.0</ele><time>2026-04-12T08:57:56.548Z</time></trkpt><trkpt lat="45.631805" lon="12.25627"><ele>9.0</ele><time>2026-04-12T08:57:59.547Z</time></trkpt><trkpt lat="45.6318183" lon="12.256375"><ele>9.0</ele><time>2026-04-12T08:58:02.548Z</time></trkpt><trkpt lat="45.63183" lon="12.2564683"><ele>9.0</ele><time>2026-04-12T08:58:05.547Z</time></trkpt><trkpt lat="45.6318517" lon="12.25659"><ele>9.0</ele><time>2026-04-12T08:58:09.547Z</time></trkpt><trkpt lat="45.6318483" lon="12.2568033"><ele>9.0</ele><time>2026-04-12T08:58:14.547Z</time></trkpt><trkpt lat="45.6318417" lon="12.256895"><ele>9.0</ele><time>2026-04-12T08:58:16.548Z</time></trkpt><trkpt lat="45.6318317" lon="12.2569867"><ele>9.0</ele><time>2026-04-12T08:58:18.548Z</time></trkpt><trkpt lat="45.6318117" lon="12.2571117"><ele>9.0</ele><time>2026-04-12T08:58:21.547Z</time></trkpt><trkpt lat="45.6317983" lon="12.257235"><ele>9.0</ele><time>2026-04-12T08:58:24.548Z</time></trkpt><trkpt lat="45.6317867" lon="12.2573667"><ele>9.0</ele><time>2026-04-12T08:58:27.548Z</time></trkpt><trkpt lat="45.63178" lon="12.2575017"><ele>9.0</ele><time>2026-04-12T08:58:30.548Z</time></trkpt><trkpt lat="45.6317667" lon="12.2577233"><ele>9.0</ele><time>2026-04-12T08:58:35.547Z</time></trkpt><trkpt lat="45.6317517" lon="12.2578467"><ele>9.0</ele><time>2026-04-12T08:58:38.547Z</time></trkpt><trkpt lat="45.631745" lon="12.2579667"><ele>9.0</ele><time>2026-04-12T08:58:41.548Z</time></trkpt><trkpt lat="45.6317417" lon="12.2581"><ele>9.0</ele><time>2026-04-12T08:58:44.548Z</time></trkpt><trkpt lat="45.631725" lon="12.2582317"><ele>9.6</ele><time>2026-04-12T08:58:47.548Z</time></trkpt><trkpt lat="45.6317067" lon="12.25832"><ele>10.2</ele><time>2026-04-12T08:58:49.547Z</time></trkpt><trkpt lat="45.6316367" lon="12.2584017"><ele>10.799999999999999</ele><time>2026-04-12T08:58:52.548Z</time></trkpt><trkpt lat="45.6314933" lon="12.2585033"><ele>11.4</ele><time>2026-04-12T08:58:57.547Z</time></trkpt><trkpt lat="45.6314317" lon="12.258555"><ele>12.0</ele><time>2026-04-12T08:58:59.547Z</time></trkpt><trkpt lat="45.6313717" lon="12.2586017"><ele>12.0</ele><time>2026-04-12T08:59:01.548Z</time></trkpt><trkpt lat="45.631295" lon="12.25866"><ele>12.0</ele><time>2026-04-12T08:59:04.547Z</time></trkpt><trkpt lat="45.6312383" lon="12.258715"><ele>12.0</ele><time>2026-04-12T08:59:06.547Z</time></trkpt><trkpt lat="45.631155" lon="12.2587717"><ele>12.0</ele><time>2026-04-12T08:59:09.547Z</time></trkpt><trkpt lat="45.6310967" lon="12.2588083"><ele>12.0</ele><time>2026-04-12T08:59:11.547Z</time></trkpt><trkpt lat="45.6310383" lon="12.2588467"><ele>12.0</ele><time>2026-04-12T08:59:13.547Z</time></trkpt><trkpt lat="45.6309267" lon="12.2589333"><ele>11.571428571428571</ele><time>2026-04-12T08:59:17.546Z</time></trkpt><trkpt lat="45.6308717" lon="12.2589783"><ele>11.142857142857142</ele><time>2026-04-12T08:59:19.547Z</time></trkpt><trkpt lat="45.6307883" lon="12.2590367"><ele>10.714285714285715</ele><time>2026-04-12T08:59:22.547Z</time></trkpt><trkpt lat="45.6307283" lon="12.2590833"><ele>10.285714285714285</ele><time>2026-04-12T08:59:24.547Z</time></trkpt><trkpt lat="45.63067" lon="12.2591267"><ele>9.857142857142858</ele><time>2026-04-12T08:59:26.547Z</time></trkpt><trkpt lat="45.6306083" lon="12.2591683"><ele>9.428571428571429</ele><time>2026-04-12T08:59:28.546Z</time></trkpt><trkpt lat="45.6305483" lon="12.2592167"><ele>9.0</ele><time>2026-04-12T08:59:30.547Z</time></trkpt><trkpt lat="45.630485" lon="12.2592617"><ele>9.0</ele><time>2026-04-12T08:59:32.547Z</time></trkpt><trkpt lat="45.6304067" lon="12.2593183"><ele>9.0</ele><time>2026-04-12T08:59:35.547Z</time></trkpt><trkpt lat="45.6303867" lon="12.2595617"><ele>9.0</ele><time>2026-04-12T08:59:41.546Z</time></trkpt><trkpt lat="45.630405" lon="12.2596483"><ele>9.0</ele><time>2026-04-12T08:59:43.546Z</time></trkpt><trkpt lat="45.6304367" lon="12.2597317"><ele>9.0</ele><time>2026-04-12T08:59:45.546Z</time></trkpt><trkpt lat="45.6304767" lon="12.2598133"><ele>9.4</ele><time>2026-04-12T08:59:47.546Z</time></trkpt><trkpt lat="45.63051" lon="12.2598983"><ele>9.8</ele><time>2026-04-12T08:59:49.547Z</time></trkpt><trkpt lat="45.6305567" lon="12.2600167"><ele>10.200000000000001</ele><time>2026-04-12T08:59:52.547Z</time></trkpt><trkpt lat="45.6305883" lon="12.2601017"><ele>10.600000000000001</ele><time>2026-04-12T08:59:54.547Z</time></trkpt><trkpt lat="45.6306283" lon="12.2602283"><ele>11.0</ele><time>2026-04-12T08:59:57.547Z</time></trkpt><trkpt lat="45.6306867" lon="12.260405"><ele>11.0</ele><time>2026-04-12T09:00:01.546Z</time></trkpt><trkpt lat="45.63071" lon="12.2604917"><ele>11.0</ele><time>2026-04-12T09:00:03.546Z</time></trkpt><trkpt lat="45.63073" lon="12.26058"><ele>11.0</ele><time>2026-04-12T09:00:05.546Z</time></trkpt><trkpt lat="45.6307483" lon="12.2607017"><ele>11.0</ele><time>2026-04-12T09:00:08.547Z</time></trkpt><trkpt lat="45.6307567" lon="12.26082"><ele>11.0</ele><time>2026-04-12T09:00:11.546Z</time></trkpt><trkpt lat="45.63073" lon="12.260935"><ele>11.0</ele><time>2026-04-12T09:00:14.546Z</time></trkpt><trkpt lat="45.6306917" lon="12.2610433"><ele>11.0</ele><time>2026-04-12T09:00:17.547Z</time></trkpt><trkpt lat="45.6306733" lon="12.2611483"><ele>11.0</ele><time>2026-04-12T09:00:20.546Z</time></trkpt><trkpt lat="45.6306" lon="12.261335"><ele>11.0</ele><time>2026-04-12T09:00:26.546Z</time></trkpt><trkpt lat="45.6305683" lon="12.2614383"><ele>11.0</ele><time>2026-04-12T09:00:29.547Z</time></trkpt><trkpt lat="45.6305467" lon="12.261525"><ele>11.0</ele><time>2026-04-12T09:00:31.546Z</time></trkpt><trkpt lat="45.63053" lon="12.2616267"><ele>11.0</ele><time>2026-04-12T09:00:33.546Z</time></trkpt><trkpt lat="45.6305133" lon="12.26173"><ele>10.666666666666666</ele><time>2026-04-12T09:00:35.547Z</time></trkpt><trkpt lat="45.6304933" lon="12.2618417"><ele>10.333333333333332</ele><time>2026-04-12T09:00:37.547Z</time></trkpt><trkpt lat="45.6304783" lon="12.2619517"><ele>10.0</ele><time>2026-04-12T09:00:39.546Z</time></trkpt><trkpt lat="45.63048" lon="12.26205"><ele>9.666666666666666</ele><time>2026-04-12T09:00:41.546Z</time></trkpt><trkpt lat="45.6305383" lon="12.2622183"><ele>9.333333333333334</ele><time>2026-04-12T09:00:45.546Z</time></trkpt><trkpt lat="45.6305767" lon="12.2622983"><ele>9.0</ele><time>2026-04-12T09:00:47.546Z</time></trkpt><trkpt lat="45.6306417" lon="12.26238"><ele>9.0</ele><time>2026-04-12T09:00:50.546Z</time></trkpt><trkpt lat="45.6306317" lon="12.2624967"><ele>9.0</ele><time>2026-04-12T09:00:53.547Z</time></trkpt><trkpt lat="45.6305667" lon="12.26255"><ele>9.0</ele><time>2026-04-12T09:00:56.546Z</time></trkpt><trkpt lat="45.6304867" lon="12.2625983"><ele>9.0</ele><time>2026-04-12T09:00:59.546Z</time></trkpt><trkpt lat="45.6304283" lon="12.262645"><ele>9.0</ele><time>2026-04-12T09:01:01.546Z</time></trkpt><trkpt lat="45.6303817" lon="12.2627133"><ele>9.0</ele><time>2026-04-12T09:01:03.546Z</time></trkpt><trkpt lat="45.6303317" lon="12.2628983"><ele>9.0</ele><time>2026-04-12T09:01:07.546Z</time></trkpt><trkpt lat="45.6302967" lon="12.2629733"><ele>9.0</ele><time>2026-04-12T09:01:09.547Z</time></trkpt><trkpt lat="45.630245" lon="12.2630783"><ele>9.0</ele><time>2026-04-12T09:01:12.547Z</time></trkpt><trkpt lat="45.6302317" lon="12.26321"><ele>9.0</ele><time>2026-04-12T09:01:15.547Z</time></trkpt><trkpt lat="45.6302217" lon="12.2633033"><ele>9.0</ele><time>2026-04-12T09:01:17.546Z</time></trkpt><trkpt lat="45.6302267" lon="12.2633983"><ele>9.0</ele><time>2026-04-12T09:01:19.547Z</time></trkpt><trkpt lat="45.630235" lon="12.2635"><ele>9.0</ele><time>2026-04-12T09:01:21.546Z</time></trkpt><trkpt lat="45.630225" lon="12.2635917"><ele>9.0</ele><time>2026-04-12T09:01:23.546Z</time></trkpt><trkpt lat="45.6302167" lon="12.2636883"><ele>9.0</ele><time>2026-04-12T09:01:25.547Z</time></trkpt><trkpt lat="45.63021" lon="12.263885"><ele>9.0</ele><time>2026-04-12T09:01:29.546Z</time></trkpt><trkpt lat="45.6302083" lon="12.2639817"><ele>9.0</ele><time>2026-04-12T09:01:31.547Z</time></trkpt><trkpt lat="45.630205" lon="12.2640767"><ele>9.0</ele><time>2026-04-12T09:01:33.546Z</time></trkpt><trkpt lat="45.6302083" lon="12.2641733"><ele>9.0</ele><time>2026-04-12T09:01:35.547Z</time></trkpt><trkpt lat="45.630205" lon="12.264265"><ele>9.0</ele><time>2026-04-12T09:01:37.546Z</time></trkpt><trkpt lat="45.6302033" lon="12.2643567"><ele>9.0</ele><time>2026-04-12T09:01:39.546Z</time></trkpt><trkpt lat="45.6302022" lon="12.2644644"><ele>9.0</ele><time>2026-04-12T09:01:41.63Z</time></trkpt><trkpt lat="45.630195" lon="12.2646016"><ele>9.0</ele><time>2026-04-12T09:01:44.584Z</time></trkpt><trkpt lat="45.630192" lon="12.2647001"><ele>9.0</ele><time>2026-04-12T09:01:46.588Z</time></trkpt><trkpt lat="45.6301862" lon="12.264896"><ele>9.000000000000002</ele><time>2026-04-12T09:01:50.597Z</time></trkpt><trkpt lat="45.6301908" lon="12.2650377"><ele>9.0</ele><time>2026-04-12T09:01:53.515Z</time></trkpt><trkpt lat="45.6301881" lon="12.2651375"><ele>9.0</ele><time>2026-04-12T09:01:55.607Z</time></trkpt><trkpt lat="45.6301856" lon="12.2652276"><ele>9.0</ele><time>2026-04-12T09:01:57.472Z</time></trkpt><trkpt lat="45.6301794" lon="12.2653269"><ele>9.0</ele><time>2026-04-12T09:01:59.616Z</time></trkpt><trkpt lat="45.6301804" lon="12.2654214"><ele>9.000000000000002</ele><time>2026-04-12T09:02:01.62Z</time></trkpt><trkpt lat="45.6301781" lon="12.2655146"><ele>9.0</ele><time>2026-04-12T09:02:03.623Z</time></trkpt><trkpt lat="45.6301759" lon="12.2656082"><ele>9.0</ele><time>2026-04-12T09:02:05.534Z</time></trkpt><trkpt lat="45.6301783" lon="12.2657099"><ele>9.0</ele><time>2026-04-12T09:02:07.633Z</time></trkpt><trkpt lat="45.6301701" lon="12.265906"><ele>9.0</ele><time>2026-04-12T09:02:11.641Z</time></trkpt><trkpt lat="45.6301679" lon="12.2660045"><ele>9.0</ele><time>2026-04-12T09:02:13.651Z</time></trkpt><trkpt lat="45.6301625" lon="12.2661173"><ele>9.0</ele><time>2026-04-12T09:02:16.05Z</time></trkpt><trkpt lat="45.6301591" lon="12.2662175"><ele>9.0</ele><time>2026-04-12T09:02:18.069Z</time></trkpt><trkpt lat="45.6301586" lon="12.2663277"><ele>9.0</ele><time>2026-04-12T09:02:20.341Z</time></trkpt><trkpt lat="45.6301498" lon="12.2664313"><ele>9.0</ele><time>2026-04-12T09:02:22.553Z</time></trkpt><trkpt lat="45.6301444" lon="12.2665235"><ele>9.0</ele><time>2026-04-12T09:02:24.567Z</time></trkpt><trkpt lat="45.6301451" lon="12.2666191"><ele>9.0</ele><time>2026-04-12T09:02:26.571Z</time></trkpt><trkpt lat="45.6301478" lon="12.2667132"><ele>9.0</ele><time>2026-04-12T09:02:28.575Z</time></trkpt><trkpt lat="45.6301241" lon="12.2669088"><ele>9.0</ele><time>2026-04-12T09:02:32.575Z</time></trkpt><trkpt lat="45.6301036" lon="12.2670003"><ele>9.000000000000002</ele><time>2026-04-12T09:02:34.588Z</time></trkpt><trkpt lat="45.6300857" lon="12.2670926"><ele>9.0</ele><time>2026-04-12T09:02:36.591Z</time></trkpt><trkpt lat="45.6300684" lon="12.2671817"><ele>9.0</ele><time>2026-04-12T09:02:38.596Z</time></trkpt><trkpt lat="45.6300429" lon="12.267266"><ele>9.0</ele><time>2026-04-12T09:02:40.599Z</time></trkpt><trkpt lat="45.630018" lon="12.2673501"><ele>9.0</ele><time>2026-04-12T09:02:42.604Z</time></trkpt><trkpt lat="45.6299817" lon="12.26748"><ele>9.000000000000002</ele><time>2026-04-12T09:02:45.547Z</time></trkpt><trkpt lat="45.629955" lon="12.2675717"><ele>9.0</ele><time>2026-04-12T09:02:47.547Z</time></trkpt><trkpt lat="45.62993" lon="12.2676567"><ele>8.833333333333334</ele><time>2026-04-12T09:02:49.547Z</time></trkpt><trkpt lat="45.62988" lon="12.2678433"><ele>8.666666666666666</ele><time>2026-04-12T09:02:53.546Z</time></trkpt><trkpt lat="45.629855" lon="12.267935"><ele>8.5</ele><time>2026-04-12T09:02:55.546Z</time></trkpt><trkpt lat="45.62983" lon="12.2680233"><ele>8.333333333333332</ele><time>2026-04-12T09:02:57.546Z</time></trkpt><trkpt lat="45.6298033" lon="12.26811"><ele>8.166666666666666</ele><time>2026-04-12T09:02:59.547Z</time></trkpt><trkpt lat="45.6297767" lon="12.2682017"><ele>8.0</ele><time>2026-04-12T09:03:01.547Z</time></trkpt><trkpt lat="45.6297483" lon="12.26829"><ele>8.0</ele><time>2026-04-12T09:03:03.547Z</time></trkpt><trkpt lat="45.629715" lon="12.2684083"><ele>8.0</ele><time>2026-04-12T09:03:06.546Z</time></trkpt><trkpt lat="45.62969" lon="12.2684933"><ele>8.0</ele><time>2026-04-12T09:03:08.547Z</time></trkpt><trkpt lat="45.629655" lon="12.2686117"><ele>8.0</ele><time>2026-04-12T09:03:11.547Z</time></trkpt><trkpt lat="45.6295967" lon="12.2688317"><ele>8.0</ele><time>2026-04-12T09:03:17.546Z</time></trkpt><trkpt lat="45.6295667" lon="12.26894"><ele>7.999999999999999</ele><time>2026-04-12T09:03:20.547Z</time></trkpt><trkpt lat="45.6295367" lon="12.2690583"><ele>8.0</ele><time>2026-04-12T09:03:23.546Z</time></trkpt><trkpt lat="45.6295017" lon="12.26918"><ele>8.0</ele><time>2026-04-12T09:03:26.546Z</time></trkpt><trkpt lat="45.62948" lon="12.2692683"><ele>8.0</ele><time>2026-04-12T09:03:28.547Z</time></trkpt><trkpt lat="45.6294683" lon="12.2693633"><ele>7.999999999999999</ele><time>2026-04-12T09:03:30.547Z</time></trkpt><trkpt lat="45.6294833" lon="12.2694617"><ele>8.0</ele><time>2026-04-12T09:03:32.546Z</time></trkpt><trkpt lat="45.6295717" lon="12.2696033"><ele>8.0</ele><time>2026-04-12T09:03:36.547Z</time></trkpt><trkpt lat="45.6296183" lon="12.2696667"><ele>7.999999999999999</ele><time>2026-04-12T09:03:38.546Z</time></trkpt><trkpt lat="45.62967" lon="12.26972"><ele>8.0</ele><time>2026-04-12T09:03:40.547Z</time></trkpt><trkpt lat="45.6297283" lon="12.2697667"><ele>8.0</ele><time>2026-04-12T09:03:42.546Z</time></trkpt><trkpt lat="45.6297867" lon="12.269815"><ele>7.999999999999999</ele><time>2026-04-12T09:03:44.546Z</time></trkpt><trkpt lat="45.6298467" lon="12.2698483"><ele>8.0</ele><time>2026-04-12T09:03:46.546Z</time></trkpt><trkpt lat="45.62991" lon="12.2698817"><ele>8.0</ele><time>2026-04-12T09:03:48.547Z</time></trkpt><trkpt lat="45.6299767" lon="12.26991"><ele>7.833333333333333</ele><time>2026-04-12T09:03:50.546Z</time></trkpt><trkpt lat="45.6300417" lon="12.269945"><ele>7.666666666666666</ele><time>2026-04-12T09:03:52.546Z</time></trkpt><trkpt lat="45.630105" lon="12.26999"><ele>7.5</ele><time>2026-04-12T09:03:54.546Z</time></trkpt><trkpt lat="45.63022" lon="12.270095"><ele>7.333333333333334</ele><time>2026-04-12T09:03:58.547Z</time></trkpt><trkpt lat="45.6302733" lon="12.270155"><ele>7.166666666666667</ele><time>2026-04-12T09:04:00.547Z</time></trkpt><trkpt lat="45.6303267" lon="12.2702133"><ele>7.0</ele><time>2026-04-12T09:04:02.547Z</time></trkpt><trkpt lat="45.6303817" lon="12.2702717"><ele>7.000000000000001</ele><time>2026-04-12T09:04:04.547Z</time></trkpt><trkpt lat="45.630435" lon="12.2703333"><ele>7.0</ele><time>2026-04-12T09:04:06.547Z</time></trkpt><trkpt lat="45.63049" lon="12.2703883"><ele>7.0</ele><time>2026-04-12T09:04:08.547Z</time></trkpt><trkpt lat="45.6305433" lon="12.2704417"><ele>7.0</ele><time>2026-04-12T09:04:10.546Z</time></trkpt><trkpt lat="45.6306167" lon="12.2705217"><ele>7.000000000000001</ele><time>2026-04-12T09:04:13.546Z</time></trkpt><trkpt lat="45.6306717" lon="12.2705783"><ele>7.0</ele><time>2026-04-12T09:04:15.547Z</time></trkpt><trkpt lat="45.6307783" lon="12.2707183"><ele>7.000000000000001</ele><time>2026-04-12T09:04:20.546Z</time></trkpt><trkpt lat="45.63073" lon="12.270815"><ele>7.0</ele><time>2026-04-12T09:04:24.546Z</time></trkpt><trkpt lat="45.63068" lon="12.2709017"><ele>7.0</ele><time>2026-04-12T09:04:27.547Z</time></trkpt><trkpt lat="45.6306867" lon="12.2710033"><ele>7.0</ele><time>2026-04-12T09:04:30.547Z</time></trkpt><trkpt lat="45.630705" lon="12.2711183"><ele>7.000000000000001</ele><time>2026-04-12T09:04:33.547Z</time></trkpt><trkpt lat="45.63074" lon="12.2712367"><ele>7.0</ele><time>2026-04-12T09:04:36.547Z</time></trkpt><trkpt lat="45.6308983" lon="12.2713683"><ele>7.000000000000001</ele><time>2026-04-12T09:04:42.547Z</time></trkpt><trkpt lat="45.6309417" lon="12.2714883"><ele>7.0</ele><time>2026-04-12T09:04:45.547Z</time></trkpt><trkpt lat="45.6309367" lon="12.2715783"><ele>7.0</ele><time>2026-04-12T09:04:47.546Z</time></trkpt><trkpt lat="45.6309433" lon="12.2717017"><ele>7.0</ele><time>2026-04-12T09:04:50.546Z</time></trkpt><trkpt lat="45.6309867" lon="12.2718067"><ele>7.000000000000001</ele><time>2026-04-12T09:04:53.547Z</time></trkpt><trkpt lat="45.6310483" lon="12.2718833"><ele>7.0</ele><time>2026-04-12T09:04:56.546Z</time></trkpt><trkpt lat="45.6311183" lon="12.2719667"><ele>7.166666666666667</ele><time>2026-04-12T09:04:59.547Z</time></trkpt><trkpt lat="45.6312233" lon="12.27209"><ele>7.333333333333334</ele><time>2026-04-12T09:05:03.546Z</time></trkpt><trkpt lat="45.6312767" lon="12.27215"><ele>7.5</ele><time>2026-04-12T09:05:05.547Z</time></trkpt><trkpt lat="45.6313317" lon="12.2722117"><ele>7.666666666666666</ele><time>2026-04-12T09:05:07.546Z</time></trkpt><trkpt lat="45.631385" lon="12.2722717"><ele>7.833333333333333</ele><time>2026-04-12T09:05:09.547Z</time></trkpt><trkpt lat="45.6314417" lon="12.2723367"><ele>8.0</ele><time>2026-04-12T09:05:11.547Z</time></trkpt><trkpt lat="45.6314967" lon="12.2724"><ele>7.999999999999999</ele><time>2026-04-12T09:05:13.546Z</time></trkpt><trkpt lat="45.6315483" lon="12.2724633"><ele>8.0</ele><time>2026-04-12T09:05:15.547Z</time></trkpt><trkpt lat="45.6316" lon="12.2725267"><ele>8.0</ele><time>2026-04-12T09:05:17.546Z</time></trkpt><trkpt lat="45.63165" lon="12.272585"><ele>8.0</ele><time>2026-04-12T09:05:19.546Z</time></trkpt><trkpt lat="45.631755" lon="12.2727383"><ele>7.999999999999999</ele><time>2026-04-12T09:05:24.546Z</time></trkpt><trkpt lat="45.631785" lon="12.2728333"><ele>8.0</ele><time>2026-04-12T09:05:27.546Z</time></trkpt><trkpt lat="45.6318367" lon="12.272885"><ele>8.0</ele><time>2026-04-12T09:05:30.547Z</time></trkpt><trkpt lat="45.63189" lon="12.2729483"><ele>8.0</ele><time>2026-04-12T09:05:33.546Z</time></trkpt><trkpt lat="45.631945" lon="12.2730267"><ele>8.0</ele><time>2026-04-12T09:05:36.546Z</time></trkpt><trkpt lat="45.63201" lon="12.2731033"><ele>8.0</ele><time>2026-04-12T09:05:39.547Z</time></trkpt><trkpt lat="45.632065" lon="12.2731917"><ele>8.0</ele><time>2026-04-12T09:05:42.547Z</time></trkpt><trkpt lat="45.632185" lon="12.2733317"><ele>8.4</ele><time>2026-04-12T09:05:50.546Z</time></trkpt><trkpt lat="45.6322417" lon="12.273405"><ele>8.8</ele><time>2026-04-12T09:05:54.547Z</time></trkpt><trkpt lat="45.6322983" lon="12.2734667"><ele>9.2</ele><time>2026-04-12T09:05:57.547Z</time></trkpt><trkpt lat="45.6323583" lon="12.2735333"><ele>9.6</ele><time>2026-04-12T09:06:00.547Z</time></trkpt><trkpt lat="45.63242" lon="12.2736067"><ele>10.0</ele><time>2026-04-12T09:06:03.547Z</time></trkpt><trkpt lat="45.6325617" lon="12.27379"><ele>10.0</ele><time>2026-04-12T09:06:10.546Z</time></trkpt><trkpt lat="45.6326217" lon="12.2738783"><ele>10.0</ele><time>2026-04-12T09:06:13.546Z</time></trkpt><trkpt lat="45.632675" lon="12.2739717"><ele>10.0</ele><time>2026-04-12T09:06:16.547Z</time></trkpt><trkpt lat="45.6327233" lon="12.2740783"><ele>10.0</ele><time>2026-04-12T09:06:19.547Z</time></trkpt><trkpt lat="45.632765" lon="12.2741783"><ele>10.0</ele><time>2026-04-12T09:06:22.546Z</time></trkpt><trkpt lat="45.63281" lon="12.2742767"><ele>10.0</ele><time>2026-04-12T09:06:25.546Z</time></trkpt><trkpt lat="45.6328833" lon="12.2744267"><ele>10.0</ele><time>2026-04-12T09:06:29.547Z</time></trkpt><trkpt lat="45.6329267" lon="12.2744983"><ele>10.0</ele><time>2026-04-12T09:06:31.546Z</time></trkpt><trkpt lat="45.6329617" lon="12.274575"><ele>10.0</ele><time>2026-04-12T09:06:33.547Z</time></trkpt><trkpt lat="45.633015" lon="12.2746783"><ele>10.0</ele><time>2026-04-12T09:06:36.547Z</time></trkpt><trkpt lat="45.6330633" lon="12.2747817"><ele>10.0</ele><time>2026-04-12T09:06:39.547Z</time></trkpt><trkpt lat="45.6331" lon="12.2748567"><ele>10.0</ele><time>2026-04-12T09:06:41.546Z</time></trkpt><trkpt lat="45.6331317" lon="12.274935"><ele>10.0</ele><time>2026-04-12T09:06:43.546Z</time></trkpt><trkpt lat="45.6331817" lon="12.2750483"><ele>10.0</ele><time>2026-04-12T09:06:46.546Z</time></trkpt><trkpt lat="45.633245" lon="12.2752133"><ele>10.0</ele><time>2026-04-12T09:06:50.547Z</time></trkpt><trkpt lat="45.6332783" lon="12.2752933"><ele>10.0</ele><time>2026-04-12T09:06:52.546Z</time></trkpt><trkpt lat="45.633325" lon="12.2754083"><ele>10.0</ele><time>2026-04-12T09:06:55.546Z</time></trkpt><trkpt lat="45.6333583" lon="12.275485"><ele>10.0</ele><time>2026-04-12T09:06:57.547Z</time></trkpt><trkpt lat="45.633395" lon="12.2755667"><ele>10.0</ele><time>2026-04-12T09:06:59.547Z</time></trkpt><trkpt lat="45.633425" lon="12.2756483"><ele>9.833333333333334</ele><time>2026-04-12T09:07:01.547Z</time></trkpt><trkpt lat="45.63346" lon="12.2757233"><ele>9.666666666666668</ele><time>2026-04-12T09:07:03.547Z</time></trkpt><trkpt lat="45.6335033" lon="12.27584"><ele>9.5</ele><time>2026-04-12T09:07:06.546Z</time></trkpt><trkpt lat="45.6335333" lon="12.2759217"><ele>9.333333333333334</ele><time>2026-04-12T09:07:08.547Z</time></trkpt><trkpt lat="45.633605" lon="12.2760817"><ele>9.166666666666666</ele><time>2026-04-12T09:07:12.546Z</time></trkpt><trkpt lat="45.63364" lon="12.276165"><ele>9.0</ele><time>2026-04-12T09:07:14.546Z</time></trkpt><trkpt lat="45.63367" lon="12.2762483"><ele>9.0</ele><time>2026-04-12T09:07:16.547Z</time></trkpt><trkpt lat="45.6337017" lon="12.27633"><ele>9.0</ele><time>2026-04-12T09:07:18.546Z</time></trkpt><trkpt lat="45.6337333" lon="12.2764133"><ele>9.0</ele><time>2026-04-12T09:07:20.546Z</time></trkpt><trkpt lat="45.6337683" lon="12.276495"><ele>9.0</ele><time>2026-04-12T09:07:22.547Z</time></trkpt><trkpt lat="45.6338117" lon="12.2766083"><ele>9.0</ele><time>2026-04-12T09:07:25.546Z</time></trkpt><trkpt lat="45.633855" lon="12.2767167"><ele>9.0</ele><time>2026-04-12T09:07:28.547Z</time></trkpt><trkpt lat="45.6338983" lon="12.2768217"><ele>9.0</ele><time>2026-04-12T09:07:31.546Z</time></trkpt><trkpt lat="45.633985" lon="12.2770317"><ele>9.0</ele><time>2026-04-12T09:07:37.546Z</time></trkpt><trkpt lat="45.6340267" lon="12.2771333"><ele>9.0</ele><time>2026-04-12T09:07:40.547Z</time></trkpt><trkpt lat="45.6340683" lon="12.2772367"><ele>9.0</ele><time>2026-04-12T09:07:43.546Z</time></trkpt><trkpt lat="45.63411" lon="12.2773467"><ele>9.0</ele><time>2026-04-12T09:07:46.547Z</time></trkpt><trkpt lat="45.63415" lon="12.2774517"><ele>8.6</ele><time>2026-04-12T09:07:49.547Z</time></trkpt><trkpt lat="45.634195" lon="12.277555"><ele>8.2</ele><time>2026-04-12T09:07:52.547Z</time></trkpt><trkpt lat="45.6342817" lon="12.2777617"><ele>7.799999999999999</ele><time>2026-04-12T09:07:58.547Z</time></trkpt><trkpt lat="45.6343233" lon="12.2778717"><ele>7.3999999999999995</ele><time>2026-04-12T09:08:01.546Z</time></trkpt><trkpt lat="45.6343717" lon="12.2779783"><ele>7.0</ele><time>2026-04-12T09:08:04.547Z</time></trkpt><trkpt lat="45.6344133" lon="12.27809"><ele>7.166666666666667</ele><time>2026-04-12T09:08:07.546Z</time></trkpt><trkpt lat="45.6344317" lon="12.2782067"><ele>7.333333333333334</ele><time>2026-04-12T09:08:10.547Z</time></trkpt><trkpt lat="45.63447" lon="12.278295"><ele>7.5</ele><time>2026-04-12T09:08:13.546Z</time></trkpt><trkpt lat="45.6345683" lon="12.27843"><ele>7.666666666666666</ele><time>2026-04-12T09:08:19.547Z</time></trkpt><trkpt lat="45.6346283" lon="12.2784933"><ele>7.833333333333333</ele><time>2026-04-12T09:08:24.547Z</time></trkpt><trkpt lat="45.63468" lon="12.2785817"><ele>8.0</ele><time>2026-04-12T09:08:29.546Z</time></trkpt><trkpt lat="45.6347383" lon="12.2786483"><ele>8.0</ele><time>2026-04-12T09:08:33.546Z</time></trkpt><trkpt lat="45.6348817" lon="12.2787683"><ele>8.0</ele><time>2026-04-12T09:08:40.547Z</time></trkpt><trkpt lat="45.634945" lon="12.2788617"><ele>8.0</ele><time>2026-04-12T09:08:43.546Z</time></trkpt><trkpt lat="45.6350083" lon="12.2789483"><ele>8.0</ele><time>2026-04-12T09:08:46.547Z</time></trkpt><trkpt lat="45.6350733" lon="12.279025"><ele>8.0</ele><time>2026-04-12T09:08:49.546Z</time></trkpt><trkpt lat="45.6351367" lon="12.27911"><ele>7.800000000000001</ele><time>2026-04-12T09:08:52.546Z</time></trkpt><trkpt lat="45.6351967" lon="12.2791933"><ele>7.6000000000000005</ele><time>2026-04-12T09:08:55.547Z</time></trkpt><trkpt lat="45.6353083" lon="12.279365"><ele>7.3999999999999995</ele><time>2026-04-12T09:09:01.546Z</time></trkpt><trkpt lat="45.6353717" lon="12.2794467"><ele>7.199999999999999</ele><time>2026-04-12T09:09:04.546Z</time></trkpt><trkpt lat="45.6354333" lon="12.2795267"><ele>7.0</ele><time>2026-04-12T09:09:07.547Z</time></trkpt><trkpt lat="45.6354917" lon="12.279605"><ele>7.0</ele><time>2026-04-12T09:09:10.547Z</time></trkpt><trkpt lat="45.635545" lon="12.2796867"><ele>6.999999999999999</ele><time>2026-04-12T09:09:13.546Z</time></trkpt><trkpt lat="45.6356083" lon="12.27977"><ele>6.999999999999999</ele><time>2026-04-12T09:09:16.546Z</time></trkpt><trkpt lat="45.6357367" lon="12.27984"><ele>7.0</ele><time>2026-04-12T09:09:22.545Z</time></trkpt><trkpt lat="45.63581" lon="12.2798033"><ele>7.0</ele><time>2026-04-12T09:09:25.545Z</time></trkpt><trkpt lat="45.6358733" lon="12.2798667"><ele>7.199999999999999</ele><time>2026-04-12T09:09:28.545Z</time></trkpt><trkpt lat="45.635855" lon="12.2799717"><ele>7.3999999999999995</ele><time>2026-04-12T09:09:31.546Z</time></trkpt><trkpt lat="45.6358417" lon="12.2800733"><ele>7.6000000000000005</ele><time>2026-04-12T09:09:34.546Z</time></trkpt><trkpt lat="45.6359117" lon="12.2801633"><ele>7.800000000000001</ele><time>2026-04-12T09:09:37.546Z</time></trkpt><trkpt lat="45.6360267" lon="12.280315"><ele>8.0</ele><time>2026-04-12T09:09:42.545Z</time></trkpt><trkpt lat="45.6360717" lon="12.2803833"><ele>7.999999999999999</ele><time>2026-04-12T09:09:44.546Z</time></trkpt><trkpt lat="45.6361133" lon="12.2804533"><ele>8.0</ele><time>2026-04-12T09:09:46.545Z</time></trkpt><trkpt lat="45.636155" lon="12.2805217"><ele>8.0</ele><time>2026-04-12T09:09:48.546Z</time></trkpt><trkpt lat="45.6361933" lon="12.2805933"><ele>8.0</ele><time>2026-04-12T09:09:50.546Z</time></trkpt><trkpt lat="45.6362483" lon="12.2806967"><ele>7.999999999999999</ele><time>2026-04-12T09:09:53.545Z</time></trkpt><trkpt lat="45.6363017" lon="12.280805"><ele>8.0</ele><time>2026-04-12T09:09:56.545Z</time></trkpt><trkpt lat="45.6363517" lon="12.2809133"><ele>7.999999999999999</ele><time>2026-04-12T09:09:59.546Z</time></trkpt><trkpt lat="45.6364283" lon="12.28111"><ele>8.0</ele><time>2026-04-12T09:10:04.546Z</time></trkpt><trkpt lat="45.63646" lon="12.28119"><ele>8.0</ele><time>2026-04-12T09:10:06.546Z</time></trkpt><trkpt lat="45.6365017" lon="12.2813083"><ele>8.0</ele><time>2026-04-12T09:10:09.546Z</time></trkpt><trkpt lat="45.63653" lon="12.2813917"><ele>7.999999999999999</ele><time>2026-04-12T09:10:11.546Z</time></trkpt><trkpt lat="45.636555" lon="12.2814783"><ele>8.0</ele><time>2026-04-12T09:10:13.546Z</time></trkpt><trkpt lat="45.636595" lon="12.2816"><ele>8.0</ele><time>2026-04-12T09:10:16.545Z</time></trkpt><trkpt lat="45.6366267" lon="12.28172"><ele>8.0</ele><time>2026-04-12T09:10:19.546Z</time></trkpt><trkpt lat="45.6366583" lon="12.28184"><ele>8.0</ele><time>2026-04-12T09:10:22.546Z</time></trkpt><trkpt lat="45.6366983" lon="12.2820533"><ele>8.0</ele><time>2026-04-12T09:10:27.545Z</time></trkpt><trkpt lat="45.636715" lon="12.2821767"><ele>8.0</ele><time>2026-04-12T09:10:30.546Z</time></trkpt><trkpt lat="45.6367367" lon="12.2823033"><ele>7.833333333333333</ele><time>2026-04-12T09:10:33.545Z</time></trkpt><trkpt lat="45.6367483" lon="12.2824283"><ele>7.666666666666666</ele><time>2026-04-12T09:10:36.546Z</time></trkpt><trkpt lat="45.6367567" lon="12.2825233"><ele>7.5</ele><time>2026-04-12T09:10:38.545Z</time></trkpt><trkpt lat="45.636765" lon="12.2826333"><ele>7.333333333333334</ele><time>2026-04-12T09:10:40.546Z</time></trkpt><trkpt lat="45.6367667" lon="12.282745"><ele>7.166666666666667</ele><time>2026-04-12T09:10:42.546Z</time></trkpt><trkpt lat="45.6367683" lon="12.28285"><ele>7.0</ele><time>2026-04-12T09:10:44.546Z</time></trkpt><trkpt lat="45.6367717" lon="12.2830567"><ele>7.0</ele><time>2026-04-12T09:10:48.546Z</time></trkpt><trkpt lat="45.63677" lon="12.2831583"><ele>7.0</ele><time>2026-04-12T09:10:50.545Z</time></trkpt><trkpt lat="45.6367717" lon="12.2832567"><ele>7.0</ele><time>2026-04-12T09:10:52.546Z</time></trkpt><trkpt lat="45.6367733" lon="12.28335"><ele>7.0</ele><time>2026-04-12T09:10:54.546Z</time></trkpt><trkpt lat="45.6367783" lon="12.2834433"><ele>7.0</ele><time>2026-04-12T09:10:56.546Z</time></trkpt><trkpt lat="45.6367783" lon="12.2835383"><ele>7.0</ele><time>2026-04-12T09:10:58.545Z</time></trkpt><trkpt lat="45.6367817" lon="12.28363"><ele>7.0</ele><time>2026-04-12T09:11:00.545Z</time></trkpt><trkpt lat="45.6367833" lon="12.2837267"><ele>7.0</ele><time>2026-04-12T09:11:02.546Z</time></trkpt><trkpt lat="45.6367683" lon="12.2838533"><ele>6.999999999999999</ele><time>2026-04-12T09:11:05.546Z</time></trkpt><trkpt lat="45.6367617" lon="12.28411"><ele>6.999999999999999</ele><time>2026-04-12T09:11:11.546Z</time></trkpt><trkpt lat="45.6367667" lon="12.2842"><ele>7.0</ele><time>2026-04-12T09:11:13.545Z</time></trkpt><trkpt lat="45.6367683" lon="12.2843317"><ele>7.0</ele><time>2026-04-12T09:11:16.545Z</time></trkpt><trkpt lat="45.636775" lon="12.2844633"><ele>7.166666666666667</ele><time>2026-04-12T09:11:19.545Z</time></trkpt><trkpt lat="45.6367767" lon="12.2845583"><ele>7.333333333333334</ele><time>2026-04-12T09:11:21.545Z</time></trkpt><trkpt lat="45.6367783" lon="12.2846533"><ele>7.5</ele><time>2026-04-12T09:11:23.546Z</time></trkpt><trkpt lat="45.6367867" lon="12.2847433"><ele>7.666666666666666</ele><time>2026-04-12T09:11:25.545Z</time></trkpt><trkpt lat="45.6368167" lon="12.2848633"><ele>7.833333333333333</ele><time>2026-04-12T09:11:28.546Z</time></trkpt><trkpt lat="45.6368383" lon="12.2850867"><ele>8.0</ele><time>2026-04-12T09:11:33.546Z</time></trkpt><trkpt lat="45.6368433" lon="12.2851833"><ele>7.999999999999999</ele><time>2026-04-12T09:11:35.546Z</time></trkpt><trkpt lat="45.6368483" lon="12.285275"><ele>8.0</ele><time>2026-04-12T09:11:37.546Z</time></trkpt><trkpt lat="45.6368583" lon="12.285365"><ele>8.0</ele><time>2026-04-12T09:11:39.545Z</time></trkpt><trkpt lat="45.636905" lon="12.28547"><ele>8.0</ele><time>2026-04-12T09:11:42.546Z</time></trkpt><trkpt lat="45.636985" lon="12.2854783"><ele>7.999999999999999</ele><time>2026-04-12T09:11:45.546Z</time></trkpt><trkpt lat="45.6370683" lon="12.2854283"><ele>8.0</ele><time>2026-04-12T09:11:48.545Z</time></trkpt><trkpt lat="45.6371483" lon="12.2853733"><ele>8.333333333333332</ele><time>2026-04-12T09:11:51.545Z</time></trkpt><trkpt lat="45.637285" lon="12.2852783"><ele>8.666666666666666</ele><time>2026-04-12T09:11:56.545Z</time></trkpt><trkpt lat="45.637345" lon="12.2852383"><ele>9.0</ele><time>2026-04-12T09:11:58.545Z</time></trkpt><trkpt lat="45.6374067" lon="12.2851933"><ele>9.333333333333334</ele><time>2026-04-12T09:12:00.546Z</time></trkpt><trkpt lat="45.6374683" lon="12.2851483"><ele>9.666666666666668</ele><time>2026-04-12T09:12:02.545Z</time></trkpt><trkpt lat="45.63753" lon="12.2851067"><ele>10.0</ele><time>2026-04-12T09:12:04.545Z</time></trkpt><trkpt lat="45.6375917" lon="12.2850583"><ele>10.0</ele><time>2026-04-12T09:12:06.546Z</time></trkpt><trkpt lat="45.6376533" lon="12.28501"><ele>10.0</ele><time>2026-04-12T09:12:08.545Z</time></trkpt><trkpt lat="45.6377167" lon="12.2849617"><ele>10.0</ele><time>2026-04-12T09:12:10.545Z</time></trkpt><trkpt lat="45.6377833" lon="12.2849133"><ele>10.0</ele><time>2026-04-12T09:12:12.546Z</time></trkpt><trkpt lat="45.6379217" lon="12.2848317"><ele>10.0</ele><time>2026-04-12T09:12:16.545Z</time></trkpt><trkpt lat="45.63799" lon="12.2847833"><ele>10.0</ele><time>2026-04-12T09:12:18.545Z</time></trkpt><trkpt lat="45.6380567" lon="12.2847317"><ele>10.333333333333334</ele><time>2026-04-12T09:12:20.546Z</time></trkpt><trkpt lat="45.638125" lon="12.2846817"><ele>10.666666666666668</ele><time>2026-04-12T09:12:22.546Z</time></trkpt><trkpt lat="45.63819" lon="12.2846383"><ele>11.0</ele><time>2026-04-12T09:12:24.545Z</time></trkpt><trkpt lat="45.6382567" lon="12.2845967"><ele>11.333333333333334</ele><time>2026-04-12T09:12:26.546Z</time></trkpt><trkpt lat="45.638325" lon="12.2845417"><ele>11.666666666666666</ele><time>2026-04-12T09:12:28.546Z</time></trkpt><trkpt lat="45.638395" lon="12.28449"><ele>12.0</ele><time>2026-04-12T09:12:30.546Z</time></trkpt><trkpt lat="45.6384667" lon="12.284455"><ele>12.0</ele><time>2026-04-12T09:12:32.545Z</time></trkpt><trkpt lat="45.6385433" lon="12.2844283"><ele>12.0</ele><time>2026-04-12T09:12:34.545Z</time></trkpt><trkpt lat="45.63871" lon="12.2844133"><ele>12.0</ele><time>2026-04-12T09:12:38.546Z</time></trkpt><trkpt lat="45.638795" lon="12.2844233"><ele>12.0</ele><time>2026-04-12T09:12:40.546Z</time></trkpt><trkpt lat="45.6388733" lon="12.284435"><ele>12.0</ele><time>2026-04-12T09:12:42.546Z</time></trkpt><trkpt lat="45.63895" lon="12.284455"><ele>11.0</ele><time>2026-04-12T09:12:44.546Z</time></trkpt><trkpt lat="45.6390267" lon="12.28448"><ele>10.0</ele><time>2026-04-12T09:12:46.546Z</time></trkpt><trkpt lat="45.639105" lon="12.2845017"><ele>9.0</ele><time>2026-04-12T09:12:48.545Z</time></trkpt><trkpt lat="45.6391833" lon="12.284525"><ele>8.0</ele><time>2026-04-12T09:12:50.545Z</time></trkpt><trkpt lat="45.639265" lon="12.2845433"><ele>7.0</ele><time>2026-04-12T09:12:52.545Z</time></trkpt><trkpt lat="45.6393533" lon="12.2845667"><ele>6.0</ele><time>2026-04-12T09:12:54.546Z</time></trkpt><trkpt lat="45.6394367" lon="12.2845933"><ele>6.0</ele><time>2026-04-12T09:12:56.545Z</time></trkpt><trkpt lat="45.6395983" lon="12.28463"><ele>6.0</ele><time>2026-04-12T09:13:00.545Z</time></trkpt><trkpt lat="45.6396883" lon="12.2846417"><ele>6.0</ele><time>2026-04-12T09:13:02.546Z</time></trkpt><trkpt lat="45.6397767" lon="12.284645"><ele>6.0</ele><time>2026-04-12T09:13:04.546Z</time></trkpt><trkpt lat="45.6398633" lon="12.2846417"><ele>6.0</ele><time>2026-04-12T09:13:06.546Z</time></trkpt><trkpt lat="45.6399583" lon="12.2846183"><ele>6.0</ele><time>2026-04-12T09:13:08.545Z</time></trkpt><trkpt lat="45.6400533" lon="12.284595"><ele>6.0</ele><time>2026-04-12T09:13:10.546Z</time></trkpt><trkpt lat="45.6401433" lon="12.2845717"><ele>6.0</ele><time>2026-04-12T09:13:12.546Z</time></trkpt><trkpt lat="45.6402333" lon="12.2845483"><ele>6.0</ele><time>2026-04-12T09:13:14.546Z</time></trkpt><trkpt lat="45.6403217" lon="12.28452"><ele>6.0</ele><time>2026-04-12T09:13:16.546Z</time></trkpt><trkpt lat="45.6404117" lon="12.2845017"><ele>6.0</ele><time>2026-04-12T09:13:18.546Z</time></trkpt><trkpt lat="45.6405733" lon="12.284495"><ele>6.0</ele><time>2026-04-12T09:13:22.545Z</time></trkpt><trkpt lat="45.6406583" lon="12.284495"><ele>6.0</ele><time>2026-04-12T09:13:24.546Z</time></trkpt><trkpt lat="45.64074" lon="12.2844983"><ele>6.0</ele><time>2026-04-12T09:13:26.545Z</time></trkpt><trkpt lat="45.640815" lon="12.2845033"><ele>6.0</ele><time>2026-04-12T09:13:28.546Z</time></trkpt><trkpt lat="45.6408833" lon="12.2845117"><ele>6.0</ele><time>2026-04-12T09:13:30.545Z</time></trkpt><trkpt lat="45.6409617" lon="12.2845183"><ele>6.0</ele><time>2026-04-12T09:13:32.545Z</time></trkpt><trkpt lat="45.6410367" lon="12.284525"><ele>6.0</ele><time>2026-04-12T09:13:34.546Z</time></trkpt><trkpt lat="45.641115" lon="12.28453"><ele>6.0</ele><time>2026-04-12T09:13:36.545Z</time></trkpt><trkpt lat="45.6411933" lon="12.284535"><ele>6.0</ele><time>2026-04-12T09:13:38.545Z</time></trkpt><trkpt lat="45.64127" lon="12.2845483"><ele>6.0</ele><time>2026-04-12T09:13:40.545Z</time></trkpt><trkpt lat="45.6414267" lon="12.2845617"><ele>6.0</ele><time>2026-04-12T09:13:44.546Z</time></trkpt><trkpt lat="45.641505" lon="12.284565"><ele>6.0</ele><time>2026-04-12T09:13:46.545Z</time></trkpt><trkpt lat="45.6415833" lon="12.2845783"><ele>6.0</ele><time>2026-04-12T09:13:48.545Z</time></trkpt><trkpt lat="45.6416517" lon="12.284625"><ele>6.0</ele><time>2026-04-12T09:13:50.545Z</time></trkpt><trkpt lat="45.6417467" lon="12.2846483"><ele>6.0</ele><time>2026-04-12T09:13:52.546Z</time></trkpt><trkpt lat="45.6418333" lon="12.2846783"><ele>6.0</ele><time>2026-04-12T09:13:54.546Z</time></trkpt><trkpt lat="45.641915" lon="12.2847083"><ele>6.199999999999999</ele><time>2026-04-12T09:13:56.546Z</time></trkpt><trkpt lat="45.641995" lon="12.284735"><ele>6.3999999999999995</ele><time>2026-04-12T09:13:58.546Z</time></trkpt><trkpt lat="45.642075" lon="12.2847633"><ele>6.6</ele><time>2026-04-12T09:14:00.546Z</time></trkpt><trkpt lat="45.64215" lon="12.28479"><ele>6.8</ele><time>2026-04-12T09:14:02.546Z</time></trkpt><trkpt lat="45.6422983" lon="12.2848483"><ele>7.0</ele><time>2026-04-12T09:14:06.545Z</time></trkpt><trkpt lat="45.64237" lon="12.2848717"><ele>7.0</ele><time>2026-04-12T09:14:08.546Z</time></trkpt><trkpt lat="45.642435" lon="12.2848817"><ele>7.0</ele><time>2026-04-12T09:14:10.545Z</time></trkpt><trkpt lat="45.6425283" lon="12.28487"><ele>7.0</ele><time>2026-04-12T09:14:13.546Z</time></trkpt><trkpt lat="45.6425917" lon="12.2848933"><ele>7.0</ele><time>2026-04-12T09:14:15.545Z</time></trkpt><trkpt lat="45.642655" lon="12.284925"><ele>7.0</ele><time>2026-04-12T09:14:17.546Z</time></trkpt><trkpt lat="45.6427183" lon="12.2849517"><ele>7.0</ele><time>2026-04-12T09:14:19.545Z</time></trkpt><trkpt lat="45.64278" lon="12.2849717"><ele>7.0</ele><time>2026-04-12T09:14:21.545Z</time></trkpt><trkpt lat="45.6428417" lon="12.2849917"><ele>7.0</ele><time>2026-04-12T09:14:23.546Z</time></trkpt><trkpt lat="45.6430017" lon="12.28492"><ele>6.999999999999999</ele><time>2026-04-12T09:14:29.546Z</time></trkpt><trkpt lat="45.6430217" lon="12.284805"><ele>6.999999999999999</ele><time>2026-04-12T09:14:32.545Z</time></trkpt><trkpt lat="45.6430233" lon="12.284675"><ele>7.0</ele><time>2026-04-12T09:14:35.545Z</time></trkpt><trkpt lat="45.6430167" lon="12.2845417"><ele>7.0</ele><time>2026-04-12T09:14:38.546Z</time></trkpt><trkpt lat="45.643015" lon="12.2844483"><ele>-1.0</ele><time>2026-04-12T09:14:40.545Z</time></trkpt><trkpt lat="45.645395" lon="12.2841917"><ele>-1.0</ele><time>2026-04-12T09:16:52.545Z</time></trkpt><trkpt lat="45.64556" lon="12.2841217"><ele>-1.0</ele><time>2026-04-12T09:16:58.546Z</time></trkpt><trkpt lat="45.645635" lon="12.28409"><ele>-1.0</ele><time>2026-04-12T09:17:01.546Z</time></trkpt><trkpt lat="45.6457133" lon="12.28406"><ele>-1.0</ele><time>2026-04-12T09:17:04.546Z</time></trkpt><trkpt lat="45.6457967" lon="12.2840317"><ele>-1.0</ele><time>2026-04-12T09:17:07.546Z</time></trkpt><trkpt lat="45.645885" lon="12.2840133"><ele>-1.0</ele><time>2026-04-12T09:17:10.546Z</time></trkpt><trkpt lat="45.645965" lon="12.283985"><ele>-1.0</ele><time>2026-04-12T09:17:13.545Z</time></trkpt><trkpt lat="45.6461167" lon="12.2839583"><ele>-1.0</ele><time>2026-04-12T09:17:18.545Z</time></trkpt><trkpt lat="45.6462017" lon="12.283945"><ele>-1.0</ele><time>2026-04-12T09:17:21.546Z</time></trkpt><trkpt lat="45.6462917" lon="12.2839367"><ele>-1.0</ele><time>2026-04-12T09:17:24.546Z</time></trkpt><trkpt lat="45.6463833" lon="12.2839417"><ele>-0.20000000000000007</ele><time>2026-04-12T09:17:27.545Z</time></trkpt><trkpt lat="45.6464733" lon="12.2839617"><ele>0.5999999999999999</ele><time>2026-04-12T09:17:30.546Z</time></trkpt><trkpt lat="45.646565" lon="12.2839767"><ele>1.4</ele><time>2026-04-12T09:17:33.545Z</time></trkpt><trkpt lat="45.6466433" lon="12.2839733"><ele>2.1999999999999997</ele><time>2026-04-12T09:17:36.546Z</time></trkpt><trkpt lat="45.6467983" lon="12.28393"><ele>3.0</ele><time>2026-04-12T09:17:41.545Z</time></trkpt><trkpt lat="45.64687" lon="12.2838883"><ele>3.4</ele><time>2026-04-12T09:17:43.545Z</time></trkpt><trkpt lat="45.6469383" lon="12.2838483"><ele>3.8</ele><time>2026-04-12T09:17:45.546Z</time></trkpt><trkpt lat="45.64702" lon="12.28381"><ele>4.2</ele><time>2026-04-12T09:17:48.545Z</time></trkpt><trkpt lat="45.6470633" lon="12.283735"><ele>4.6</ele><time>2026-04-12T09:17:54.545Z</time></trkpt><trkpt lat="45.6470283" lon="12.2836483"><ele>5.0</ele><time>2026-04-12T09:17:58.546Z</time></trkpt><trkpt lat="45.6469633" lon="12.2834517"><ele>5.0</ele><time>2026-04-12T09:18:05.546Z</time></trkpt><trkpt lat="45.6469383" lon="12.2833617"><ele>5.0</ele><time>2026-04-12T09:18:08.546Z</time></trkpt><trkpt lat="45.6469117" lon="12.28326"><ele>5.0</ele><time>2026-04-12T09:18:11.545Z</time></trkpt><trkpt lat="45.6468833" lon="12.28317"><ele>5.0</ele><time>2026-04-12T09:18:14.546Z</time></trkpt><trkpt lat="45.6468533" lon="12.283075"><ele>5.0</ele><time>2026-04-12T09:18:17.545Z</time></trkpt><trkpt lat="45.6468317" lon="12.2829767"><ele>5.0</ele><time>2026-04-12T09:18:20.545Z</time></trkpt><trkpt lat="45.6468017" lon="12.28278"><ele>5.5</ele><time>2026-04-12T09:18:26.545Z</time></trkpt><trkpt lat="45.6467917" lon="12.282685"><ele>6.0</ele><time>2026-04-12T09:18:29.545Z</time></trkpt><trkpt lat="45.646775" lon="12.28258"><ele>6.5</ele><time>2026-04-12T09:18:32.545Z</time></trkpt><trkpt lat="45.6467317" lon="12.2824867"><ele>7.0</ele><time>2026-04-12T09:18:35.545Z</time></trkpt><trkpt lat="45.6467133" lon="12.28237"><ele>7.499999999999999</ele><time>2026-04-12T09:18:38.545Z</time></trkpt><trkpt lat="45.6467117" lon="12.2822467"><ele>8.0</ele><time>2026-04-12T09:18:41.545Z</time></trkpt><trkpt lat="45.6468217" lon="12.2821"><ele>7.999999999999999</ele><time>2026-04-12T09:18:47.544Z</time></trkpt><trkpt lat="45.6468983" lon="12.2820417"><ele>8.0</ele><time>2026-04-12T09:18:50.545Z</time></trkpt><trkpt lat="45.6469733" lon="12.2820133"><ele>8.0</ele><time>2026-04-12T09:18:53.544Z</time></trkpt><trkpt lat="45.6470467" lon="12.281975"><ele>8.0</ele><time>2026-04-12T09:18:56.545Z</time></trkpt><trkpt lat="45.6471217" lon="12.2819367"><ele>7.999999999999999</ele><time>2026-04-12T09:18:59.545Z</time></trkpt><trkpt lat="45.6471917" lon="12.281885"><ele>8.0</ele><time>2026-04-12T09:19:02.544Z</time></trkpt><trkpt lat="45.6473417" lon="12.28183"><ele>7.833333333333333</ele><time>2026-04-12T09:19:07.544Z</time></trkpt><trkpt lat="45.647435" lon="12.2817933"><ele>7.666666666666666</ele><time>2026-04-12T09:19:10.544Z</time></trkpt><trkpt lat="45.6474967" lon="12.2817483"><ele>7.5</ele><time>2026-04-12T09:19:12.544Z</time></trkpt><trkpt lat="45.6475683" lon="12.281705"><ele>7.333333333333334</ele><time>2026-04-12T09:19:15.544Z</time></trkpt><trkpt lat="45.6476533" lon="12.2816667"><ele>7.166666666666667</ele><time>2026-04-12T09:19:18.545Z</time></trkpt><trkpt lat="45.6477133" lon="12.281635"><ele>7.0</ele><time>2026-04-12T09:19:20.544Z</time></trkpt><trkpt lat="45.6477867" lon="12.2815933"><ele>6.833333333333334</ele><time>2026-04-12T09:19:23.545Z</time></trkpt><trkpt lat="45.64791" lon="12.28152"><ele>6.666666666666667</ele><time>2026-04-12T09:19:27.545Z</time></trkpt><trkpt lat="45.6479767" lon="12.2814983"><ele>6.5</ele><time>2026-04-12T09:19:29.545Z</time></trkpt><trkpt lat="45.6480717" lon="12.2814583"><ele>6.333333333333334</ele><time>2026-04-12T09:19:32.545Z</time></trkpt><trkpt lat="45.6481483" lon="12.28147"><ele>6.166666666666667</ele><time>2026-04-12T09:19:35.545Z</time></trkpt><trkpt lat="45.6481983" lon="12.28154"><ele>6.0</ele><time>2026-04-12T09:19:37.544Z</time></trkpt><trkpt lat="45.6482433" lon="12.2816117"><ele>6.0</ele><time>2026-04-12T09:19:39.544Z</time></trkpt><trkpt lat="45.6482883" lon="12.2816867"><ele>6.0</ele><time>2026-04-12T09:19:41.545Z</time></trkpt><trkpt lat="45.64836" lon="12.2817767"><ele>6.0</ele><time>2026-04-12T09:19:44.545Z</time></trkpt><trkpt lat="45.6484783" lon="12.2818817"><ele>6.0</ele><time>2026-04-12T09:19:48.544Z</time></trkpt><trkpt lat="45.6485383" lon="12.281935"><ele>6.0</ele><time>2026-04-12T09:19:50.544Z</time></trkpt><trkpt lat="45.6485967" lon="12.2819817"><ele>6.0</ele><time>2026-04-12T09:19:52.545Z</time></trkpt><trkpt lat="45.6486533" lon="12.28203"><ele>5.7142857142857135</ele><time>2026-04-12T09:19:54.545Z</time></trkpt><trkpt lat="45.648715" lon="12.28208"><ele>5.428571428571429</ele><time>2026-04-12T09:19:56.544Z</time></trkpt><trkpt lat="45.648775" lon="12.2821183"><ele>5.142857142857142</ele><time>2026-04-12T09:19:58.544Z</time></trkpt><trkpt lat="45.648835" lon="12.2821467"><ele>4.857142857142857</ele><time>2026-04-12T09:20:00.545Z</time></trkpt><trkpt lat="45.6489017" lon="12.2821583"><ele>4.571428571428571</ele><time>2026-04-12T09:20:02.544Z</time></trkpt><trkpt lat="45.6489683" lon="12.2821567"><ele>4.285714285714286</ele><time>2026-04-12T09:20:04.545Z</time></trkpt><trkpt lat="45.649035" lon="12.2821433"><ele>4.0</ele><time>2026-04-12T09:20:06.545Z</time></trkpt><trkpt lat="45.649165" lon="12.2820617"><ele>4.0</ele><time>2026-04-12T09:20:10.545Z</time></trkpt><trkpt lat="45.6492283" lon="12.2820033"><ele>3.9999999999999996</ele><time>2026-04-12T09:20:12.545Z</time></trkpt><trkpt lat="45.6492917" lon="12.2819483"><ele>4.0</ele><time>2026-04-12T09:20:14.545Z</time></trkpt><trkpt lat="45.6493467" lon="12.28189"><ele>4.0</ele><time>2026-04-12T09:20:16.544Z</time></trkpt><trkpt lat="45.649405" lon="12.2818283"><ele>3.9999999999999996</ele><time>2026-04-12T09:20:18.545Z</time></trkpt><trkpt lat="45.649455" lon="12.28176"><ele>4.0</ele><time>2026-04-12T09:20:20.545Z</time></trkpt><trkpt lat="45.6495" lon="12.28168"><ele>4.0</ele><time>2026-04-12T09:20:22.545Z</time></trkpt><trkpt lat="45.6495533" lon="12.2815933"><ele>3.9999999999999996</ele><time>2026-04-12T09:20:24.545Z</time></trkpt><trkpt lat="45.649605" lon="12.2815083"><ele>4.0</ele><time>2026-04-12T09:20:26.544Z</time></trkpt><trkpt lat="45.649655" lon="12.2814317"><ele>4.0</ele><time>2026-04-12T09:20:28.545Z</time></trkpt><trkpt lat="45.64976" lon="12.28129"><ele>4.0</ele><time>2026-04-12T09:20:32.544Z</time></trkpt><trkpt lat="45.6498183" lon="12.281235"><ele>3.9999999999999996</ele><time>2026-04-12T09:20:34.545Z</time></trkpt><trkpt lat="45.6498783" lon="12.2811917"><ele>4.0</ele><time>2026-04-12T09:20:36.545Z</time></trkpt><trkpt lat="45.64994" lon="12.28116"><ele>4.0</ele><time>2026-04-12T09:20:38.545Z</time></trkpt><trkpt lat="45.6500083" lon="12.28114"><ele>3.9999999999999996</ele><time>2026-04-12T09:20:40.545Z</time></trkpt><trkpt lat="45.6500817" lon="12.28112"><ele>4.0</ele><time>2026-04-12T09:20:42.545Z</time></trkpt><trkpt lat="45.6501533" lon="12.281105"><ele>4.0</ele><time>2026-04-12T09:20:44.544Z</time></trkpt><trkpt lat="45.650225" lon="12.2810933"><ele>3.9999999999999996</ele><time>2026-04-12T09:20:46.545Z</time></trkpt><trkpt lat="45.650295" lon="12.281075"><ele>4.0</ele><time>2026-04-12T09:20:48.545Z</time></trkpt><trkpt lat="45.65037" lon="12.2810567"><ele>4.0</ele><time>2026-04-12T09:20:50.544Z</time></trkpt><trkpt lat="45.6505167" lon="12.2809817"><ele>4.428571428571429</ele><time>2026-04-12T09:20:55.544Z</time></trkpt><trkpt lat="45.6505733" lon="12.2809317"><ele>4.857142857142857</ele><time>2026-04-12T09:20:57.545Z</time></trkpt><trkpt lat="45.650625" lon="12.2808683"><ele>5.285714285714286</ele><time>2026-04-12T09:20:59.545Z</time></trkpt><trkpt lat="45.6506783" lon="12.2808067"><ele>5.714285714285714</ele><time>2026-04-12T09:21:01.544Z</time></trkpt><trkpt lat="45.6507367" lon="12.2807517"><ele>6.142857142857142</ele><time>2026-04-12T09:21:03.544Z</time></trkpt><trkpt lat="45.6507933" lon="12.2806983"><ele>6.571428571428571</ele><time>2026-04-12T09:21:05.544Z</time></trkpt><trkpt lat="45.6508483" lon="12.28065"><ele>7.0</ele><time>2026-04-12T09:21:07.545Z</time></trkpt><trkpt lat="45.650905" lon="12.2806083"><ele>7.0</ele><time>2026-04-12T09:21:09.544Z</time></trkpt><trkpt lat="45.6509867" lon="12.2805617"><ele>6.999999999999999</ele><time>2026-04-12T09:21:12.545Z</time></trkpt><trkpt lat="45.6511383" lon="12.280545"><ele>6.999999999999999</ele><time>2026-04-12T09:21:17.545Z</time></trkpt><trkpt lat="45.651225" lon="12.2805567"><ele>7.0</ele><time>2026-04-12T09:21:20.544Z</time></trkpt><trkpt lat="45.6513083" lon="12.280585"><ele>7.0</ele><time>2026-04-12T09:21:23.545Z</time></trkpt><trkpt lat="45.6513833" lon="12.28063"><ele>6.833333333333334</ele><time>2026-04-12T09:21:26.545Z</time></trkpt><trkpt lat="45.6514533" lon="12.2806717"><ele>6.666666666666667</ele><time>2026-04-12T09:21:29.545Z</time></trkpt><trkpt lat="45.6515417" lon="12.2806967"><ele>6.5</ele><time>2026-04-12T09:21:32.545Z</time></trkpt><trkpt lat="45.6516167" lon="12.2807267"><ele>6.333333333333334</ele><time>2026-04-12T09:21:35.544Z</time></trkpt><trkpt lat="45.65174" lon="12.28077"><ele>6.166666666666667</ele><time>2026-04-12T09:21:40.545Z</time></trkpt><trkpt lat="45.6518033" lon="12.2808017"><ele>6.0</ele><time>2026-04-12T09:21:42.545Z</time></trkpt><trkpt lat="45.6518917" lon="12.28085"><ele>6.4</ele><time>2026-04-12T09:21:45.545Z</time></trkpt><trkpt lat="45.6519733" lon="12.2809"><ele>6.8</ele><time>2026-04-12T09:21:48.544Z</time></trkpt><trkpt lat="45.652045" lon="12.2809367"><ele>7.200000000000001</ele><time>2026-04-12T09:21:51.545Z</time></trkpt><trkpt lat="45.65212" lon="12.280965"><ele>7.6000000000000005</ele><time>2026-04-12T09:21:54.545Z</time></trkpt><trkpt lat="45.652195" lon="12.2809917"><ele>8.0</ele><time>2026-04-12T09:21:57.544Z</time></trkpt><trkpt lat="45.6523533" lon="12.2810383"><ele>7.999999999999999</ele><time>2026-04-12T09:22:03.544Z</time></trkpt><trkpt lat="45.6524383" lon="12.281065"><ele>8.0</ele><time>2026-04-12T09:22:06.545Z</time></trkpt><trkpt lat="45.6525217" lon="12.281095"><ele>8.0</ele><time>2026-04-12T09:22:09.545Z</time></trkpt><trkpt lat="45.65261" lon="12.2811233"><ele>8.0</ele><time>2026-04-12T09:22:12.544Z</time></trkpt><trkpt lat="45.6526717" lon="12.2811433"><ele>7.999999999999999</ele><time>2026-04-12T09:22:14.545Z</time></trkpt><trkpt lat="45.65276" lon="12.28117"><ele>8.0</ele><time>2026-04-12T09:22:17.545Z</time></trkpt><trkpt lat="45.6528467" lon="12.2811933"><ele>8.0</ele><time>2026-04-12T09:22:20.545Z</time></trkpt><trkpt lat="45.6529917" lon="12.2812533"><ele>8.0</ele><time>2026-04-12T09:22:25.545Z</time></trkpt><trkpt lat="45.65308" lon="12.2812783"><ele>8.0</ele><time>2026-04-12T09:22:28.544Z</time></trkpt><trkpt lat="45.6531633" lon="12.2812933"><ele>8.0</ele><time>2026-04-12T09:22:31.545Z</time></trkpt><trkpt lat="45.6532417" lon="12.2813067"><ele>8.0</ele><time>2026-04-12T09:22:34.545Z</time></trkpt><trkpt lat="45.65333" lon="12.2813333"><ele>8.0</ele><time>2026-04-12T09:22:37.544Z</time></trkpt><trkpt lat="45.6533967" lon="12.2813483"><ele>8.0</ele><time>2026-04-12T09:22:39.545Z</time></trkpt><trkpt lat="45.6534867" lon="12.2813733"><ele>8.0</ele><time>2026-04-12T09:22:42.545Z</time></trkpt><trkpt lat="45.65365" lon="12.28143"><ele>8.0</ele><time>2026-04-12T09:22:48.545Z</time></trkpt><trkpt lat="45.6537417" lon="12.2814467"><ele>8.0</ele><time>2026-04-12T09:22:51.545Z</time></trkpt><trkpt lat="45.6538283" lon="12.2814433"><ele>7.4</ele><time>2026-04-12T09:22:54.545Z</time></trkpt><trkpt lat="45.6539183" lon="12.281435"><ele>6.800000000000001</ele><time>2026-04-12T09:22:57.545Z</time></trkpt><trkpt lat="45.6540117" lon="12.2814317"><ele>6.2</ele><time>2026-04-12T09:23:00.544Z</time></trkpt><trkpt lat="45.6540863" lon="12.2814234"><ele>5.6</ele><time>2026-04-12T09:23:02.642Z</time></trkpt><trkpt lat="45.6541752" lon="12.2814131"><ele>5.0</ele><time>2026-04-12T09:23:05.547Z</time></trkpt><trkpt lat="45.6543066" lon="12.2813961"><ele>5.0</ele><time>2026-04-12T09:23:09.556Z</time></trkpt><trkpt lat="45.6543942" lon="12.2813977"><ele>5.0</ele><time>2026-04-12T09:23:12.466Z</time></trkpt><trkpt lat="45.6544651" lon="12.2814267"><ele>5.0</ele><time>2026-04-12T09:23:15.568Z</time></trkpt><trkpt lat="45.6545363" lon="12.2814607"><ele>5.0</ele><time>2026-04-12T09:23:18.576Z</time></trkpt><trkpt lat="45.6546267" lon="12.2815"><ele>5.0</ele><time>2026-04-12T09:23:21.545Z</time></trkpt><trkpt lat="45.654705" lon="12.2815283"><ele>5.0</ele><time>2026-04-12T09:23:24.544Z</time></trkpt><trkpt lat="45.6547683" lon="12.281565"><ele>4.8</ele><time>2026-04-12T09:23:27.544Z</time></trkpt><trkpt lat="45.6548433" lon="12.2817383"><ele>4.6</ele><time>2026-04-12T09:23:33.545Z</time></trkpt><trkpt lat="45.6548367" lon="12.28187"><ele>4.4</ele><time>2026-04-12T09:23:36.545Z</time></trkpt><trkpt lat="45.6548317" lon="12.281995"><ele>4.2</ele><time>2026-04-12T09:23:39.545Z</time></trkpt><trkpt lat="45.6548433" lon="12.2821167"><ele>4.0</ele><time>2026-04-12T09:23:42.544Z</time></trkpt><trkpt lat="45.6548533" lon="12.2822067"><ele>4.6</ele><time>2026-04-12T09:23:44.544Z</time></trkpt><trkpt lat="45.6548733" lon="12.28233"><ele>5.2</ele><time>2026-04-12T09:23:47.544Z</time></trkpt><trkpt lat="45.6549" lon="12.2824533"><ele>5.799999999999999</ele><time>2026-04-12T09:23:50.544Z</time></trkpt><trkpt lat="45.6548833" lon="12.282685"><ele>6.3999999999999995</ele><time>2026-04-12T09:23:56.544Z</time></trkpt><trkpt lat="45.6548433" lon="12.2827917"><ele>7.0</ele><time>2026-04-12T09:23:59.545Z</time></trkpt><trkpt lat="45.6547767" lon="12.2828717"><ele>7.0</ele><time>2026-04-12T09:24:02.545Z</time></trkpt><trkpt lat="45.654695" lon="12.2829317"><ele>6.999999999999999</ele><time>2026-04-12T09:24:05.545Z</time></trkpt><trkpt lat="45.65462" lon="12.2829817"><ele>6.999999999999999</ele><time>2026-04-12T09:24:08.545Z</time></trkpt><trkpt lat="45.6545567" lon="12.2830483"><ele>7.0</ele><time>2026-04-12T09:24:11.545Z</time></trkpt><trkpt lat="45.6544467" lon="12.28319"><ele>7.0</ele><time>2026-04-12T09:24:17.545Z</time></trkpt><trkpt lat="45.6543783" lon="12.2832633"><ele>7.333333333333334</ele><time>2026-04-12T09:24:20.545Z</time></trkpt><trkpt lat="45.6543067" lon="12.2833467"><ele>7.666666666666667</ele><time>2026-04-12T09:24:23.544Z</time></trkpt><trkpt lat="45.6542367" lon="12.2834167"><ele>8.0</ele><time>2026-04-12T09:24:26.545Z</time></trkpt><trkpt lat="45.65417" lon="12.2834983"><ele>8.333333333333334</ele><time>2026-04-12T09:24:29.545Z</time></trkpt><trkpt lat="45.6541217" lon="12.2835583"><ele>8.666666666666666</ele><time>2026-04-12T09:24:31.544Z</time></trkpt><trkpt lat="45.6540333" lon="12.28367"><ele>9.0</ele><time>2026-04-12T09:24:35.545Z</time></trkpt><trkpt lat="45.65391" lon="12.2838267"><ele>9.000000000000002</ele><time>2026-04-12T09:24:40.545Z</time></trkpt><trkpt lat="45.653865" lon="12.28389"><ele>9.0</ele><time>2026-04-12T09:24:42.545Z</time></trkpt><trkpt lat="45.6538217" lon="12.2839567"><ele>9.0</ele><time>2026-04-12T09:24:44.545Z</time></trkpt><trkpt lat="45.6537717" lon="12.2840217"><ele>9.0</ele><time>2026-04-12T09:24:46.545Z</time></trkpt><trkpt lat="45.6537233" lon="12.2840833"><ele>9.0</ele><time>2026-04-12T09:24:48.545Z</time></trkpt><trkpt lat="45.6536567" lon="12.284165"><ele>9.000000000000002</ele><time>2026-04-12T09:24:51.545Z</time></trkpt><trkpt lat="45.65359" lon="12.28425"><ele>9.0</ele><time>2026-04-12T09:24:54.544Z</time></trkpt><trkpt lat="45.6535417" lon="12.2843083"><ele>8.8</ele><time>2026-04-12T09:24:56.544Z</time></trkpt><trkpt lat="45.6534033" lon="12.284475"><ele>8.600000000000001</ele><time>2026-04-12T09:25:02.544Z</time></trkpt><trkpt lat="45.6533283" lon="12.2845683"><ele>8.4</ele><time>2026-04-12T09:25:05.544Z</time></trkpt><trkpt lat="45.6532817" lon="12.2846333"><ele>8.200000000000001</ele><time>2026-04-12T09:25:07.544Z</time></trkpt><trkpt lat="45.653235" lon="12.2846983"><ele>8.0</ele><time>2026-04-12T09:25:09.544Z</time></trkpt><trkpt lat="45.653185" lon="12.2847617"><ele>7.800000000000001</ele><time>2026-04-12T09:25:11.545Z</time></trkpt><trkpt lat="45.653135" lon="12.2848217"><ele>7.6000000000000005</ele><time>2026-04-12T09:25:13.544Z</time></trkpt><trkpt lat="45.6530833" lon="12.2848783"><ele>7.3999999999999995</ele><time>2026-04-12T09:25:15.544Z</time></trkpt><trkpt lat="45.653015" lon="12.2849633"><ele>7.199999999999999</ele><time>2026-04-12T09:25:18.545Z</time></trkpt><trkpt lat="45.6528783" lon="12.285135"><ele>7.0</ele><time>2026-04-12T09:25:24.545Z</time></trkpt><trkpt lat="45.65283" lon="12.285195"><ele>6.857142857142857</ele><time>2026-04-12T09:25:26.544Z</time></trkpt><trkpt lat="45.6527833" lon="12.2852583"><ele>6.714285714285714</ele><time>2026-04-12T09:25:28.544Z</time></trkpt><trkpt lat="45.65273" lon="12.285325"><ele>6.571428571428571</ele><time>2026-04-12T09:25:30.544Z</time></trkpt><trkpt lat="45.652685" lon="12.2853933"><ele>6.428571428571429</ele><time>2026-04-12T09:25:32.544Z</time></trkpt><trkpt lat="45.652645" lon="12.2854633"><ele>6.285714285714286</ele><time>2026-04-12T09:25:34.544Z</time></trkpt><trkpt lat="45.652575" lon="12.2855567"><ele>6.142857142857142</ele><time>2026-04-12T09:25:37.545Z</time></trkpt><trkpt lat="45.6525183" lon="12.2856167"><ele>6.0</ele><time>2026-04-12T09:25:39.544Z</time></trkpt><trkpt lat="45.65241" lon="12.2857667"><ele>5.999999999999999</ele><time>2026-04-12T09:25:43.545Z</time></trkpt><trkpt lat="45.6523517" lon="12.2858167"><ele>6.0</ele><time>2026-04-12T09:25:45.545Z</time></trkpt><trkpt lat="45.6523" lon="12.285875"><ele>6.0</ele><time>2026-04-12T09:25:47.545Z</time></trkpt><trkpt lat="45.652235" lon="12.2859267"><ele>6.0</ele><time>2026-04-12T09:25:49.545Z</time></trkpt><trkpt lat="45.6521717" lon="12.2859633"><ele>6.0</ele><time>2026-04-12T09:25:51.545Z</time></trkpt><trkpt lat="45.6521017" lon="12.285985"><ele>5.999999999999999</ele><time>2026-04-12T09:25:53.544Z</time></trkpt><trkpt lat="45.6520317" lon="12.2860067"><ele>6.0</ele><time>2026-04-12T09:25:55.545Z</time></trkpt><trkpt lat="45.6519667" lon="12.2860217"><ele>5.3999999999999995</ele><time>2026-04-12T09:25:57.544Z</time></trkpt><trkpt lat="45.6519017" lon="12.2860367"><ele>4.8</ele><time>2026-04-12T09:25:59.545Z</time></trkpt><trkpt lat="45.65181" lon="12.2860467"><ele>4.199999999999999</ele><time>2026-04-12T09:26:02.545Z</time></trkpt><trkpt lat="45.6516317" lon="12.2861"><ele>3.5999999999999996</ele><time>2026-04-12T09:26:08.544Z</time></trkpt><trkpt lat="45.6515733" lon="12.286135"><ele>3.0</ele><time>2026-04-12T09:26:10.544Z</time></trkpt><trkpt lat="45.651515" lon="12.286175"><ele>3.0</ele><time>2026-04-12T09:26:12.544Z</time></trkpt><trkpt lat="45.6514583" lon="12.2862283"><ele>3.0</ele><time>2026-04-12T09:26:14.544Z</time></trkpt><trkpt lat="45.6514067" lon="12.2863"><ele>3.0</ele><time>2026-04-12T09:26:16.543Z</time></trkpt><trkpt lat="45.6513383" lon="12.2863817"><ele>3.0</ele><time>2026-04-12T09:26:19.544Z</time></trkpt><trkpt lat="45.6512867" lon="12.2864467"><ele>3.0</ele><time>2026-04-12T09:26:21.543Z</time></trkpt><trkpt lat="45.6512433" lon="12.2865217"><ele>3.0</ele><time>2026-04-12T09:26:23.544Z</time></trkpt><trkpt lat="45.6511633" lon="12.28667"><ele>3.3333333333333335</ele><time>2026-04-12T09:26:27.544Z</time></trkpt><trkpt lat="45.6511183" lon="12.2867833"><ele>3.666666666666667</ele><time>2026-04-12T09:26:30.544Z</time></trkpt><trkpt lat="45.6510817" lon="12.28687"><ele>4.0</ele><time>2026-04-12T09:26:32.544Z</time></trkpt><trkpt lat="45.651055" lon="12.2869517"><ele>4.333333333333334</ele><time>2026-04-12T09:26:34.544Z</time></trkpt><trkpt lat="45.6510117" lon="12.2870667"><ele>4.666666666666667</ele><time>2026-04-12T09:26:37.544Z</time></trkpt><trkpt lat="45.650985" lon="12.28717"><ele>5.0</ele><time>2026-04-12T09:26:39.543Z</time></trkpt><trkpt lat="45.650955" lon="12.2872617"><ele>5.0</ele><time>2026-04-12T09:26:41.544Z</time></trkpt><trkpt lat="45.6509083" lon="12.287365"><ele>5.0</ele><time>2026-04-12T09:26:43.543Z</time></trkpt><trkpt lat="45.6508483" lon="12.2874767"><ele>5.0</ele><time>2026-04-12T09:26:45.544Z</time></trkpt><trkpt lat="45.6507433" lon="12.2876317"><ele>5.0</ele><time>2026-04-12T09:26:49.544Z</time></trkpt><trkpt lat="45.65069" lon="12.2877183"><ele>5.0</ele><time>2026-04-12T09:26:51.543Z</time></trkpt><trkpt lat="45.6506383" lon="12.2878"><ele>5.0</ele><time>2026-04-12T09:26:53.543Z</time></trkpt><trkpt lat="45.6505917" lon="12.2878767"><ele>5.0</ele><time>2026-04-12T09:26:55.543Z</time></trkpt><trkpt lat="45.6505367" lon="12.287955"><ele>5.0</ele><time>2026-04-12T09:26:57.544Z</time></trkpt><trkpt lat="45.6504717" lon="12.2880283"><ele>5.0</ele><time>2026-04-12T09:26:59.544Z</time></trkpt><trkpt lat="45.6504117" lon="12.2881117"><ele>5.0</ele><time>2026-04-12T09:27:01.544Z</time></trkpt><trkpt lat="45.6503517" lon="12.2881967"><ele>5.0</ele><time>2026-04-12T09:27:03.544Z</time></trkpt><trkpt lat="45.6502933" lon="12.2882683"><ele>5.333333333333334</ele><time>2026-04-12T09:27:05.544Z</time></trkpt><trkpt lat="45.6502317" lon="12.28834"><ele>5.666666666666667</ele><time>2026-04-12T09:27:07.544Z</time></trkpt><trkpt lat="45.6501117" lon="12.2884817"><ele>6.0</ele><time>2026-04-12T09:27:11.544Z</time></trkpt><trkpt lat="45.650065" lon="12.2885533"><ele>6.333333333333334</ele><time>2026-04-12T09:27:13.543Z</time></trkpt><trkpt lat="45.6500167" lon="12.2886233"><ele>6.666666666666667</ele><time>2026-04-12T09:27:15.544Z</time></trkpt><trkpt lat="45.6499717" lon="12.2886883"><ele>7.0</ele><time>2026-04-12T09:27:17.543Z</time></trkpt><trkpt lat="45.6498983" lon="12.2887683"><ele>7.0</ele><time>2026-04-12T09:27:20.543Z</time></trkpt><trkpt lat="45.6498517" lon="12.2888383"><ele>6.999999999999999</ele><time>2026-04-12T09:27:22.544Z</time></trkpt><trkpt lat="45.649795" lon="12.2889083"><ele>6.999999999999999</ele><time>2026-04-12T09:27:24.543Z</time></trkpt><trkpt lat="45.6497433" lon="12.288995"><ele>7.0</ele><time>2026-04-12T09:27:26.543Z</time></trkpt><trkpt lat="45.6496783" lon="12.28908"><ele>7.0</ele><time>2026-04-12T09:27:28.544Z</time></trkpt><trkpt lat="45.6495617" lon="12.289215"><ele>6.333333333333334</ele><time>2026-04-12T09:27:32.543Z</time></trkpt><trkpt lat="45.6495033" lon="12.289265"><ele>5.666666666666667</ele><time>2026-04-12T09:27:34.544Z</time></trkpt><trkpt lat="45.6494267" lon="12.28935"><ele>5.0</ele><time>2026-04-12T09:27:37.544Z</time></trkpt><trkpt lat="45.6493717" lon="12.2894183"><ele>4.333333333333334</ele><time>2026-04-12T09:27:39.544Z</time></trkpt><trkpt lat="45.6493133" lon="12.2894917"><ele>3.666666666666667</ele><time>2026-04-12T09:27:41.543Z</time></trkpt><trkpt lat="45.6492567" lon="12.2895567"><ele>3.0</ele><time>2026-04-12T09:27:43.544Z</time></trkpt><trkpt lat="45.6492" lon="12.2896283"><ele>3.0</ele><time>2026-04-12T09:27:45.544Z</time></trkpt><trkpt lat="45.6491583" lon="12.2897067"><ele>3.0</ele><time>2026-04-12T09:27:47.543Z</time></trkpt><trkpt lat="45.64911" lon="12.28978"><ele>3.0</ele><time>2026-04-12T09:27:49.543Z</time></trkpt><trkpt lat="45.6490067" lon="12.2899233"><ele>3.0</ele><time>2026-04-12T09:27:53.544Z</time></trkpt><trkpt lat="45.6489467" lon="12.289985"><ele>3.0</ele><time>2026-04-12T09:27:55.544Z</time></trkpt><trkpt lat="45.6488867" lon="12.29006"><ele>3.0</ele><time>2026-04-12T09:27:57.544Z</time></trkpt><trkpt lat="45.6488317" lon="12.2901417"><ele>3.0</ele><time>2026-04-12T09:27:59.543Z</time></trkpt><trkpt lat="45.6487767" lon="12.29022"><ele>3.0</ele><time>2026-04-12T09:28:01.543Z</time></trkpt><trkpt lat="45.6487183" lon="12.2902967"><ele>3.0</ele><time>2026-04-12T09:28:03.544Z</time></trkpt><trkpt lat="45.6486633" lon="12.2903733"><ele>3.0</ele><time>2026-04-12T09:28:05.544Z</time></trkpt><trkpt lat="45.64861" lon="12.290435"><ele>3.0</ele><time>2026-04-12T09:28:07.543Z</time></trkpt><trkpt lat="45.6485533" lon="12.2905083"><ele>3.0</ele><time>2026-04-12T09:28:09.544Z</time></trkpt><trkpt lat="45.6484917" lon="12.2905733"><ele>3.0</ele><time>2026-04-12T09:28:11.544Z</time></trkpt><trkpt lat="45.6483533" lon="12.2906533"><ele>3.0</ele><time>2026-04-12T09:28:15.543Z</time></trkpt><trkpt lat="45.64828" lon="12.2906633"><ele>3.0</ele><time>2026-04-12T09:28:17.544Z</time></trkpt><trkpt lat="45.6482133" lon="12.2906483"><ele>3.0</ele><time>2026-04-12T09:28:19.543Z</time></trkpt><trkpt lat="45.648155" lon="12.2906033"><ele>3.0</ele><time>2026-04-12T09:28:21.544Z</time></trkpt><trkpt lat="45.6481067" lon="12.290545"><ele>3.0</ele><time>2026-04-12T09:28:23.544Z</time></trkpt><trkpt lat="45.648055" lon="12.2904867"><ele>3.0</ele><time>2026-04-12T09:28:25.544Z</time></trkpt><trkpt lat="45.6479917" lon="12.290405"><ele>3.0</ele><time>2026-04-12T09:28:28.543Z</time></trkpt><trkpt lat="45.6479367" lon="12.2903167"><ele>3.0</ele><time>2026-04-12T09:28:31.544Z</time></trkpt><trkpt lat="45.6478883" lon="12.2902383"><ele>3.0</ele><time>2026-04-12T09:28:34.544Z</time></trkpt><trkpt lat="45.64776" lon="12.29039"><ele>3.0</ele><time>2026-04-12T09:28:44.544Z</time></trkpt><trkpt lat="45.6477133" lon="12.2904583"><ele>2.8333333333333335</ele><time>2026-04-12T09:28:47.544Z</time></trkpt><trkpt lat="45.64768" lon="12.2905367"><ele>2.6666666666666665</ele><time>2026-04-12T09:28:53.543Z</time></trkpt><trkpt lat="45.6476567" lon="12.2906367"><ele>2.5</ele><time>2026-04-12T09:28:59.543Z</time></trkpt><trkpt lat="45.6476017" lon="12.2908083"><ele>2.333333333333333</ele><time>2026-04-12T09:29:09.543Z</time></trkpt><trkpt lat="45.6475833" lon="12.2909"><ele>2.1666666666666665</ele><time>2026-04-12T09:29:16.543Z</time></trkpt><trkpt lat="45.6475633" lon="12.2909967"><ele>2.0</ele><time>2026-04-12T09:29:23.543Z</time></trkpt><trkpt lat="45.6475267" lon="12.2911833"><ele>1.9999999999999998</ele><time>2026-04-12T09:29:37.543Z</time></trkpt><trkpt lat="45.6475117" lon="12.2912783"><ele>2.0</ele><time>2026-04-12T09:29:43.544Z</time></trkpt><trkpt lat="45.64751" lon="12.29137"><ele>2.0</ele><time>2026-04-12T09:29:51.543Z</time></trkpt><trkpt lat="45.6475283" lon="12.2915533"><ele>2.0</ele><time>2026-04-12T09:30:05.544Z</time></trkpt><trkpt lat="45.64755" lon="12.2916417"><ele>1.9999999999999998</ele><time>2026-04-12T09:30:10.543Z</time></trkpt><trkpt lat="45.64758" lon="12.2917317"><ele>2.0</ele><time>2026-04-12T09:30:17.543Z</time></trkpt><trkpt lat="45.64768" lon="12.2918517"><ele>1.9999999999999998</ele><time>2026-04-12T09:30:28.543Z</time></trkpt><trkpt lat="45.6477033" lon="12.29195"><ele>2.0</ele><time>2026-04-12T09:30:33.544Z</time></trkpt><trkpt lat="45.6477117" lon="12.292045"><ele>2.0</ele><time>2026-04-12T09:30:39.544Z</time></trkpt><trkpt lat="45.6476983" lon="12.2922383"><ele>2.0</ele><time>2026-04-12T09:30:51.544Z</time></trkpt><trkpt lat="45.6476983" lon="12.292335"><ele>1.9999999999999998</ele><time>2026-04-12T09:30:57.543Z</time></trkpt><trkpt lat="45.6476983" lon="12.2924367"><ele>2.0</ele><time>2026-04-12T09:31:03.544Z</time></trkpt><trkpt lat="45.647735" lon="12.2926217"><ele>2.0</ele><time>2026-04-12T09:31:15.543Z</time></trkpt><trkpt lat="45.6477383" lon="12.292725"><ele>2.0</ele><time>2026-04-12T09:31:22.543Z</time></trkpt><trkpt lat="45.6477117" lon="12.2928067"><ele>2.0</ele><time>2026-04-12T09:31:27.544Z</time></trkpt><trkpt lat="45.6476283" lon="12.292965"><ele>2.0</ele><time>2026-04-12T09:31:40.543Z</time></trkpt><trkpt lat="45.6475717" lon="12.29303"><ele>2.0</ele><time>2026-04-12T09:31:47.544Z</time></trkpt><trkpt lat="45.6474667" lon="12.2931217"><ele>1.5</ele><time>2026-04-12T09:32:08.544Z</time></trkpt><trkpt lat="45.6474067" lon="12.2932983"><ele>1.0</ele><time>2026-04-12T09:32:25.543Z</time></trkpt><trkpt lat="45.6473333" lon="12.2934483"><ele>0.5</ele><time>2026-04-12T09:33:09.215Z</time></trkpt><trkpt lat="45.6473267" lon="12.2936267"><ele>0.0</ele><time>2026-04-12T09:33:43.548Z</time></trkpt><trkpt lat="45.6473183" lon="12.2938033"><ele>0.0</ele><time>2026-04-12T09:33:56.548Z</time></trkpt><trkpt lat="45.6473683" lon="12.2938667"><ele>0.0</ele><time>2026-04-12T09:34:02.547Z</time></trkpt><trkpt lat="45.6474167" lon="12.2939333"><ele>0.0</ele><time>2026-04-12T09:34:08.548Z</time></trkpt><trkpt lat="45.6475367" lon="12.2940533"><ele>0.0</ele><time>2026-04-12T09:34:22.547Z</time></trkpt><trkpt lat="45.64759" lon="12.294125"><ele>0.0</ele><time>2026-04-12T09:34:26.547Z</time></trkpt><trkpt lat="45.647645" lon="12.2941717"><ele>0.0</ele><time>2026-04-12T09:34:30.548Z</time></trkpt><trkpt lat="45.6477133" lon="12.2943283"><ele>0.2</ele><time>2026-04-12T09:34:46.547Z</time></trkpt><trkpt lat="45.6476967" lon="12.29442"><ele>0.4</ele><time>2026-04-12T09:34:52.547Z</time></trkpt><trkpt lat="45.647625" lon="12.2945833"><ele>0.6000000000000001</ele><time>2026-04-12T09:35:07.548Z</time></trkpt><trkpt lat="45.6475633" lon="12.2946567"><ele>0.8</ele><time>2026-04-12T09:35:23.548Z</time></trkpt><trkpt lat="45.6474867" lon="12.2948083"><ele>1.0</ele><time>2026-04-12T09:35:37.548Z</time></trkpt><trkpt lat="45.6474617" lon="12.2949017"><ele>1.6</ele><time>2026-04-12T09:35:43.547Z</time></trkpt><trkpt lat="45.6474417" lon="12.29499"><ele>2.2</ele><time>2026-04-12T09:35:48.547Z</time></trkpt><trkpt lat="45.647415" lon="12.2951883"><ele>2.8000000000000003</ele><time>2026-04-12T09:35:59.548Z</time></trkpt><trkpt lat="45.6473783" lon="12.2952817"><ele>3.4000000000000004</ele><time>2026-04-12T09:36:06.548Z</time></trkpt><trkpt lat="45.6473217" lon="12.295385"><ele>4.0</ele><time>2026-04-12T09:36:12.547Z</time></trkpt><trkpt lat="45.6472433" lon="12.2955517"><ele>4.0</ele><time>2026-04-12T09:36:22.547Z</time></trkpt><trkpt lat="45.647275" lon="12.2956333"><ele>4.0</ele><time>2026-04-12T09:36:27.547Z</time></trkpt><trkpt lat="45.6473267" lon="12.2957033"><ele>4.0</ele><time>2026-04-12T09:36:33.547Z</time></trkpt><trkpt lat="45.64732" lon="12.2958817"><ele>4.0</ele><time>2026-04-12T09:36:53.547Z</time></trkpt><trkpt lat="45.6472717" lon="12.2959517"><ele>4.0</ele><time>2026-04-12T09:36:57.548Z</time></trkpt><trkpt lat="45.6471767" lon="12.296115"><ele>3.9999999999999996</ele><time>2026-04-12T09:37:04.547Z</time></trkpt><trkpt lat="45.6471383" lon="12.2962"><ele>4.0</ele><time>2026-04-12T09:37:07.547Z</time></trkpt><trkpt lat="45.6471017" lon="12.29629"><ele>4.0</ele><time>2026-04-12T09:37:10.547Z</time></trkpt><trkpt lat="45.64706" lon="12.29638"><ele>4.0</ele><time>2026-04-12T09:37:13.547Z</time></trkpt><trkpt lat="45.6470133" lon="12.29646"><ele>3.9999999999999996</ele><time>2026-04-12T09:37:16.547Z</time></trkpt><trkpt lat="45.6469617" lon="12.296545"><ele>4.0</ele><time>2026-04-12T09:37:19.547Z</time></trkpt><trkpt lat="45.64687" lon="12.2967017"><ele>3.833333333333333</ele><time>2026-04-12T09:37:25.547Z</time></trkpt><trkpt lat="45.6468133" lon="12.2967983"><ele>3.6666666666666665</ele><time>2026-04-12T09:37:28.547Z</time></trkpt><trkpt lat="45.6467683" lon="12.2968983"><ele>3.5</ele><time>2026-04-12T09:37:31.547Z</time></trkpt><trkpt lat="45.6467217" lon="12.2969917"><ele>3.333333333333333</ele><time>2026-04-12T09:37:34.548Z</time></trkpt><trkpt lat="45.6466833" lon="12.2971"><ele>3.1666666666666665</ele><time>2026-04-12T09:37:37.547Z</time></trkpt><trkpt lat="45.6466383" lon="12.2971933"><ele>3.0</ele><time>2026-04-12T09:37:40.547Z</time></trkpt><trkpt lat="45.64655" lon="12.297385"><ele>2.8571428571428568</ele><time>2026-04-12T09:37:45.547Z</time></trkpt><trkpt lat="45.6465117" lon="12.29746"><ele>2.7142857142857144</ele><time>2026-04-12T09:37:47.547Z</time></trkpt><trkpt lat="45.6464667" lon="12.2975517"><ele>2.571428571428571</ele><time>2026-04-12T09:37:50.547Z</time></trkpt><trkpt lat="45.6464317" lon="12.297655"><ele>2.4285714285714284</ele><time>2026-04-12T09:37:53.548Z</time></trkpt><trkpt lat="45.646395" lon="12.2977567"><ele>2.2857142857142856</ele><time>2026-04-12T09:37:56.547Z</time></trkpt><trkpt lat="45.6463683" lon="12.2978467"><ele>2.142857142857143</ele><time>2026-04-12T09:37:59.548Z</time></trkpt><trkpt lat="45.6463383" lon="12.2979367"><ele>2.0</ele><time>2026-04-12T09:38:02.547Z</time></trkpt><trkpt lat="45.6462933" lon="12.29812"><ele>2.1666666666666665</ele><time>2026-04-12T09:38:08.547Z</time></trkpt><trkpt lat="45.646265" lon="12.298245"><ele>2.333333333333333</ele><time>2026-04-12T09:38:11.548Z</time></trkpt><trkpt lat="45.64623" lon="12.2983517"><ele>2.5</ele><time>2026-04-12T09:38:14.547Z</time></trkpt><trkpt lat="45.6461867" lon="12.2984583"><ele>2.6666666666666665</ele><time>2026-04-12T09:38:17.548Z</time></trkpt><trkpt lat="45.6461433" lon="12.2985633"><ele>2.8333333333333335</ele><time>2026-04-12T09:38:20.547Z</time></trkpt><trkpt lat="45.6461117" lon="12.29869"><ele>3.0</ele><time>2026-04-12T09:38:23.548Z</time></trkpt><trkpt lat="45.6460567" lon="12.29891"><ele>2.9999999999999996</ele><time>2026-04-12T09:38:28.547Z</time></trkpt><trkpt lat="45.6460233" lon="12.2990017"><ele>3.0</ele><time>2026-04-12T09:38:30.548Z</time></trkpt><trkpt lat="45.6459933" lon="12.2990967"><ele>3.0</ele><time>2026-04-12T09:38:32.548Z</time></trkpt><trkpt lat="45.6459617" lon="12.299195"><ele>3.0</ele><time>2026-04-12T09:38:34.548Z</time></trkpt><trkpt lat="45.6459283" lon="12.2993067"><ele>3.0</ele><time>2026-04-12T09:38:37.548Z</time></trkpt><trkpt lat="45.645905" lon="12.299395"><ele>2.9999999999999996</ele><time>2026-04-12T09:38:40.547Z</time></trkpt><trkpt lat="45.6458717" lon="12.2994917"><ele>3.0</ele><time>2026-04-12T09:38:43.548Z</time></trkpt><trkpt lat="45.6458317" lon="12.2995833"><ele>2.6</ele><time>2026-04-12T09:38:46.548Z</time></trkpt><trkpt lat="45.64578" lon="12.2997717"><ele>2.1999999999999997</ele><time>2026-04-12T09:38:56.547Z</time></trkpt><trkpt lat="45.6457483" lon="12.2998717"><ele>1.8</ele><time>2026-04-12T09:39:03.548Z</time></trkpt><trkpt lat="45.6457383" lon="12.299965"><ele>1.4</ele><time>2026-04-12T09:39:06.547Z</time></trkpt><trkpt lat="45.6457083" lon="12.3000667"><ele>1.0</ele><time>2026-04-12T09:39:09.548Z</time></trkpt><trkpt lat="45.6456433" lon="12.30025"><ele>0.9999999999999999</ele><time>2026-04-12T09:39:15.548Z</time></trkpt><trkpt lat="45.6456167" lon="12.30035"><ele>1.0</ele><time>2026-04-12T09:39:18.547Z</time></trkpt><trkpt lat="45.6455867" lon="12.3004383"><ele>1.0</ele><time>2026-04-12T09:39:21.548Z</time></trkpt><trkpt lat="45.64553" lon="12.3005333"><ele>1.0</ele><time>2026-04-12T09:39:24.548Z</time></trkpt><trkpt lat="45.6454783" lon="12.3006183"><ele>0.9999999999999999</ele><time>2026-04-12T09:39:27.547Z</time></trkpt><trkpt lat="45.6454433" lon="12.3006933"><ele>1.0</ele><time>2026-04-12T09:39:29.548Z</time></trkpt><trkpt lat="45.6453783" lon="12.30078"><ele>0.6000000000000001</ele><time>2026-04-12T09:39:32.548Z</time></trkpt><trkpt lat="45.64524" lon="12.30091"><ele>0.20000000000000007</ele><time>2026-04-12T09:39:38.548Z</time></trkpt><trkpt lat="45.6451533" lon="12.300945"><ele>-0.20000000000000007</ele><time>2026-04-12T09:39:41.548Z</time></trkpt><trkpt lat="45.645065" lon="12.3009717"><ele>-0.6000000000000001</ele><time>2026-04-12T09:39:44.547Z</time></trkpt><trkpt lat="45.6449783" lon="12.30097"><ele>-1.0</ele><time>2026-04-12T09:39:47.547Z</time></trkpt><trkpt lat="45.6449033" lon="12.300975"><ele>-1.0</ele><time>2026-04-12T09:39:51.547Z</time></trkpt><trkpt lat="45.6448317" lon="12.3009167"><ele>-1.0</ele><time>2026-04-12T09:39:56.548Z</time></trkpt><trkpt lat="45.644705" lon="12.300765"><ele>-1.0</ele><time>2026-04-12T09:40:01.547Z</time></trkpt><trkpt lat="45.6446517" lon="12.3006767"><ele>-1.0</ele><time>2026-04-12T09:40:03.547Z</time></trkpt><trkpt lat="45.6446133" lon="12.3005783"><ele>-1.0</ele><time>2026-04-12T09:40:05.547Z</time></trkpt><trkpt lat="45.6445717" lon="12.300495"><ele>-0.6000000000000001</ele><time>2026-04-12T09:40:07.547Z</time></trkpt><trkpt lat="45.6445117" lon="12.300395"><ele>-0.20000000000000007</ele><time>2026-04-12T09:40:10.547Z</time></trkpt><trkpt lat="45.6444617" lon="12.3002767"><ele>0.20000000000000007</ele><time>2026-04-12T09:40:13.548Z</time></trkpt><trkpt lat="45.6444267" lon="12.3001967"><ele>0.6000000000000001</ele><time>2026-04-12T09:40:15.548Z</time></trkpt><trkpt lat="45.6443883" lon="12.3000833"><ele>1.0</ele><time>2026-04-12T09:40:18.548Z</time></trkpt><trkpt lat="45.64429" lon="12.29986"><ele>0.9999999999999999</ele><time>2026-04-12T09:40:24.547Z</time></trkpt><trkpt lat="45.6442433" lon="12.2997567"><ele>1.0</ele><time>2026-04-12T09:40:27.546Z</time></trkpt><trkpt lat="45.6442117" lon="12.2996683"><ele>1.0</ele><time>2026-04-12T09:40:30.546Z</time></trkpt><trkpt lat="45.6441617" lon="12.299585"><ele>1.0</ele><time>2026-04-12T09:40:33.547Z</time></trkpt><trkpt lat="45.64411" lon="12.29949"><ele>0.9999999999999999</ele><time>2026-04-12T09:40:36.546Z</time></trkpt><trkpt lat="45.644065" lon="12.299375"><ele>1.0</ele><time>2026-04-12T09:40:39.546Z</time></trkpt><trkpt lat="45.6439783" lon="12.2991883"><ele>1.1666666666666665</ele><time>2026-04-12T09:40:44.546Z</time></trkpt><trkpt lat="45.6439417" lon="12.299105"><ele>1.3333333333333333</ele><time>2026-04-12T09:40:46.546Z</time></trkpt><trkpt lat="45.64392" lon="12.299015"><ele>1.5</ele><time>2026-04-12T09:40:48.547Z</time></trkpt><trkpt lat="45.64389" lon="12.2989333"><ele>1.6666666666666665</ele><time>2026-04-12T09:40:50.546Z</time></trkpt><trkpt lat="45.643835" lon="12.2988283"><ele>1.8333333333333333</ele><time>2026-04-12T09:40:53.547Z</time></trkpt><trkpt lat="45.6437667" lon="12.2987333"><ele>2.0</ele><time>2026-04-12T09:40:56.547Z</time></trkpt><trkpt lat="45.6436983" lon="12.2986533"><ele>2.2</ele><time>2026-04-12T09:40:59.546Z</time></trkpt><trkpt lat="45.6436267" lon="12.2985867"><ele>2.4000000000000004</ele><time>2026-04-12T09:41:02.547Z</time></trkpt><trkpt lat="45.6434875" lon="12.2984414"><ele>2.5999999999999996</ele><time>2026-04-12T09:41:08.615Z</time></trkpt><trkpt lat="45.6434316" lon="12.2983893"><ele>2.8</ele><time>2026-04-12T09:41:10.632Z</time></trkpt><trkpt lat="45.6433555" lon="12.2982896"><ele>3.0</ele><time>2026-04-12T09:41:13.547Z</time></trkpt><trkpt lat="45.6432967" lon="12.2982178"><ele>3.0</ele><time>2026-04-12T09:41:15.547Z</time></trkpt><trkpt lat="45.6432346" lon="12.2981609"><ele>3.0</ele><time>2026-04-12T09:41:17.547Z</time></trkpt><trkpt lat="45.6431682" lon="12.2981113"><ele>3.0</ele><time>2026-04-12T09:41:19.552Z</time></trkpt><trkpt lat="45.6431056" lon="12.2980645"><ele>3.0</ele><time>2026-04-12T09:41:21.557Z</time></trkpt><trkpt lat="45.6430222" lon="12.2979974"><ele>3.0</ele><time>2026-04-12T09:41:24.562Z</time></trkpt><trkpt lat="45.6429094" lon="12.297854"><ele>3.3333333333333335</ele><time>2026-04-12T09:41:29.574Z</time></trkpt><trkpt lat="45.642848" lon="12.2977978"><ele>3.666666666666667</ele><time>2026-04-12T09:41:32.58Z</time></trkpt><trkpt lat="45.6427968" lon="12.2977416"><ele>4.0</ele><time>2026-04-12T09:41:35.586Z</time></trkpt><trkpt lat="45.6427223" lon="12.2976865"><ele>4.333333333333334</ele><time>2026-04-12T09:41:39.595Z</time></trkpt><trkpt lat="45.6426714" lon="12.297617"><ele>4.666666666666667</ele><time>2026-04-12T09:41:42.602Z</time></trkpt><trkpt lat="45.6426855" lon="12.2975076"><ele>5.0</ele><time>2026-04-12T09:41:45.608Z</time></trkpt><trkpt lat="45.6425639" lon="12.2974437"><ele>5.0</ele><time>2026-04-12T09:41:51.62Z</time></trkpt><trkpt lat="45.6424972" lon="12.2974427"><ele>5.0</ele><time>2026-04-12T09:41:54.633Z</time></trkpt><trkpt lat="45.6424257" lon="12.2974226"><ele>5.0</ele><time>2026-04-12T09:41:57.547Z</time></trkpt><trkpt lat="45.6423455" lon="12.2973999"><ele>5.0</ele><time>2026-04-12T09:42:00.64Z</time></trkpt><trkpt lat="45.642255" lon="12.2973783"><ele>5.0</ele><time>2026-04-12T09:42:03.547Z</time></trkpt><trkpt lat="45.6421628" lon="12.2973505"><ele>5.0</ele><time>2026-04-12T09:42:06.553Z</time></trkpt><trkpt lat="45.6420217" lon="12.2973067"><ele>5.0</ele><time>2026-04-12T09:42:12.547Z</time></trkpt><trkpt lat="45.641975" lon="12.2972333"><ele>5.0</ele><time>2026-04-12T09:42:15.546Z</time></trkpt><trkpt lat="45.6419367" lon="12.297145"><ele>6.0</ele><time>2026-04-12T09:42:19.546Z</time></trkpt><trkpt lat="45.641905" lon="12.2970583"><ele>6.0</ele><time>2026-04-12T09:42:34.547Z</time></trkpt></trkseg><trkseg><trkpt lat="45.637885" lon="12.2484617"><ele>10.0</ele><time>2026-04-12T10:39:40.188Z</time></trkpt><trkpt lat="45.6380333" lon="12.248275"><ele>10.0</ele><time>2026-04-12T10:39:41.188Z</time></trkpt><trkpt lat="45.6380283" lon="12.2481783"><ele>10.0</ele><time>2026-04-12T10:39:43.187Z</time></trkpt><trkpt lat="45.6380583" lon="12.2479583"><ele>9.0</ele><time>2026-04-12T10:39:48.188Z</time></trkpt></trkseg></trk></gpx>